M I D A S
Marine Information and Data Acquisition System
Tripno 1709 of the Zeeleeuw from 2009-06-15 06:11:10 to 2009-06-15 16:47:28
Back to CruiseResearch ActivitiesStationsMapUnderway DataData graphs

EquipmentUnitsComment
TimeDGPSUTC
LatitudeDGPSDM.mWGS84
LongitudeDGPSDM.mWGS84
TemperatureSBE03/SBE38deg celciusITS90
ConductivitySBE21S/mITS90
SalinitySBE21 Practical Salinity Units
ChlorophylAChelsea fluorimeterg/lCalibrated in Aceton
Missing or incorrect values are displayed as -999
Sea surface data collected by the RV Zeeleeuw from 2009-06-15 06:13:37 to 2009-06-15 16:59:58
                                                                                    Next 1000 lines
Time Latitude Longitude Temperature Conductivity Salinity ChlorophylA
2009-06-15 06:13:47 51°13.662 2°55.955 19.2337 0.023993 0.12267 0.53169
2009-06-15 06:13:52 51°13.662 2°55.952 19.2348 0.024096 0.123192 0.496866
2009-06-15 06:13:57 51°13.663 2°55.948 19.247 0.024096 0.123192 0.496866
2009-06-15 06:14:02 51°13.665 2°55.944 19.2491 0.024199 0.123713 0.53169
2009-06-15 06:14:08 51°13.666 2°55.938 19.2519 0.024199 0.123713 0.496866
2009-06-15 06:14:14 51°13.668 2°55.932 19.2528 0.024199 0.123715 0.496866
2009-06-15 06:14:19 51°13.669 2°55.926 19.2425 0.024096 0.123201 0.496866
2009-06-15 06:14:25 51°13.671 2°55.919 19.2583 0.024199 0.123715 0.496866
2009-06-15 06:14:31 51°13.673 2°55.911 19.2591 0.024199 0.123715 0.496866
2009-06-15 06:14:36 51°13.674 2°55.904 19.2538 0.024302 0.124235 0.496866
2009-06-15 06:14:41 51°13.676 2°55.898 19.2729 0.024302 0.124237 0.53169
2009-06-15 06:14:46 51°13.677 2°55.891 19.2651 0.024405 0.12476 0.496866
2009-06-15 06:14:51 51°13.679 2°55.884 19.2615 0.024405 0.124762 0.496866
2009-06-15 06:14:56 51°13.68 2°55.876 19.2686 0.024508 0.125282 0.496866
2009-06-15 06:15:01 51°13.681 2°55.869 19.2443 0.024508 0.125282 0.496866
2009-06-15 06:15:05 51°13.683 2°55.863 19.2494 0.024199 0.12373 0.496866
2009-06-15 06:15:11 51°13.684 2°55.854 19.2518 0.024302 0.124248 0.496866
2009-06-15 06:15:16 51°13.686 2°55.846 19.2772 0.024508 0.125284 0.496866
2009-06-15 06:15:21 51°13.687 2°55.838 19.2719 0.024508 0.12529 0.496866
2009-06-15 06:15:25 51°13.689 2°55.833 19.2651 0.024508 0.125292 0.496866
2009-06-15 06:15:31 51°13.691 2°55.824 19.268 0.024508 0.125292 0.496866
2009-06-15 06:15:36 51°13.692 2°55.818 19.2663 0.024508 0.125292 0.53169
2009-06-15 06:15:41 51°13.694 2°55.811 19.2616 0.024508 0.125294 0.496866
2009-06-15 06:15:45 51°13.696 2°55.806 19.2496 0.024405 0.124775 0.496866
2009-06-15 06:15:50 51°13.698 2°55.799 19.2548 0.024199 0.123737 0.496866
2009-06-15 06:15:55 51°13.701 2°55.793 19.2514 0.024405 0.124775 0.496866
2009-06-15 06:16:01 51°13.704 2°55.785 19.2586 0.024405 0.124775 0.496866
2009-06-15 06:16:06 51°13.707 2°55.778 19.2589 0.02461 0.125816 0.53169
2009-06-15 06:16:10 51°13.71 2°55.772 19.2666 0.024508 0.125299 0.496866
2009-06-15 06:16:16 51°13.714 2°55.764 19.2621 0.024508 0.125301 0.496866
2009-06-15 06:16:21 51°13.718 2°55.757 19.2717 0.024405 0.124783 0.496866
2009-06-15 06:16:26 51°13.721 2°55.75 19.2669 0.024405 0.124785 0.496866
2009-06-15 06:16:30 51°13.724 2°55.744 19.2746 0.024405 0.124785 0.496866
2009-06-15 06:16:36 51°13.729 2°55.736 19.2488 0.024713 0.126342 0.53169
2009-06-15 06:16:41 51°13.733 2°55.728 19.2616 0.024405 0.124785 0.53169
2009-06-15 06:16:46 51°13.737 2°55.722 19.2773 0.024302 0.124266 0.53169
2009-06-15 06:16:51 51°13.742 2°55.715 19.2632 0.024405 0.12479 0.496866
2009-06-15 06:16:56 51°13.746 2°55.709 19.2755 0.02461 0.125827 0.53169
2009-06-15 06:17:01 51°13.751 2°55.704 19.2808 0.02461 0.125827 0.53169
2009-06-15 06:17:06 51°13.755 2°55.699 19.2948 0.02461 0.125831 0.496866
2009-06-15 06:17:11 51°13.759 2°55.696 19.2686 0.024919 0.127393 0.53169
2009-06-15 06:17:16 51°13.762 2°55.692 19.2896 0.024919 0.127395 0.496866
2009-06-15 06:17:21 51°13.765 2°55.69 19.2796 0.025434 0.129997 0.496866
2009-06-15 06:17:25 51°13.766 2°55.688 19.2649 0.024713 0.126361 0.53169
2009-06-15 06:17:30 51°13.769 2°55.686 19.2465 0.024713 0.126361 0.53169
2009-06-15 06:17:35 51°13.772 2°55.684 19.2379 0.024508 0.12532 0.496866
2009-06-15 06:17:40 51°13.775 2°55.681 19.2458 0.024302 0.124279 0.496866
2009-06-15 06:17:45 51°13.778 2°55.679 19.2726 0.024405 0.124798 0.496866
2009-06-15 06:17:50 51°13.782 2°55.676 19.2835 0.024713 0.126359 0.496866
2009-06-15 06:17:56 51°13.786 2°55.674 19.2824 0.024713 0.126361 0.496866
2009-06-15 06:18:01 51°13.789 2°55.672 19.2843 0.024713 0.126361 0.496866
2009-06-15 06:18:05 51°13.791 2°55.671 19.2787 0.025434 0.130009 0.496866
2009-06-15 06:18:10 51°13.792 2°55.67 19.2764 0.02461 0.125855 0.496866
2009-06-15 06:18:16 51°13.794 2°55.669 19.2758 0.024713 0.12637 0.496866
2009-06-15 06:18:21 51°13.796 2°55.667 19.2694 0.024508 0.125333 0.496866
2009-06-15 06:18:26 51°13.797 2°55.666 19.2646 0.024508 0.125327 0.496866
2009-06-15 06:18:30 51°13.799 2°55.665 19.2469 0.024508 0.125327 0.496866
2009-06-15 06:18:36 51°13.802 2°55.663 19.2511 0.024199 0.123768 0.496866
2009-06-15 06:18:41 51°13.805 2°55.662 19.2751 0.024302 0.124289 0.53169
2009-06-15 06:18:45 51°13.807 2°55.661 19.2735 0.024302 0.124289 0.53169
2009-06-15 06:18:50 51°13.811 2°55.659 19.2785 0.024405 0.124811 0.496866
2009-06-15 06:18:55 51°13.815 2°55.657 19.263 0.024508 0.125329 0.53169
2009-06-15 06:19:01 51°13.82 2°55.655 19.2617 0.024508 0.125329 0.53169
2009-06-15 06:19:06 51°13.825 2°55.653 19.2764 0.024302 0.12429 0.496866
2009-06-15 06:19:11 51°13.829 2°55.651 19.2739 0.02461 0.125852 0.496866
2009-06-15 06:19:16 51°13.834 2°55.65 19.2743 0.024508 0.125335 0.496866
2009-06-15 06:19:21 51°13.84 2°55.648 19.2762 0.024508 0.125338 0.496866
2009-06-15 06:19:26 51°13.845 2°55.646 19.2792 0.024508 0.12534 0.496866
2009-06-15 06:19:31 51°13.851 2°55.644 19.2817 0.024508 0.12534 0.496866
2009-06-15 06:19:36 51°13.856 2°55.643 19.2804 0.024405 0.12482 0.496866
2009-06-15 06:19:41 51°13.862 2°55.641 19.2643 0.024508 0.125344 0.53169
2009-06-15 06:19:45 51°13.866 2°55.641 19.2787 0.024508 0.12534 0.496866
2009-06-15 06:19:51 51°13.873 2°55.639 19.2983 0.02461 0.125863 0.496866
2009-06-15 06:19:56 51°13.878 2°55.639 19.2965 0.02461 0.125867 0.496866
2009-06-15 06:20:01 51°13.884 2°55.638 19.2911 0.02461 0.125867 0.496866
2009-06-15 06:20:05 51°13.887 2°55.638 19.2804 0.024713 0.126387 0.496866
2009-06-15 06:20:10 51°13.893 2°55.638 19.2833 0.024508 0.12535 0.496866
2009-06-15 06:20:16 51°13.898 2°55.638 19.2847 0.024508 0.12535 0.496866
2009-06-15 06:20:21 51°13.903 2°55.638 19.2885 0.02461 0.12587 0.496866
2009-06-15 06:20:26 51°13.908 2°55.638 19.2877 0.024713 0.126395 0.496866
2009-06-15 06:20:30 51°13.911 2°55.639 19.2856 0.024713 0.126395 0.496866
2009-06-15 06:20:36 51°13.916 2°55.64 19.2879 0.024508 0.125359 0.53169
2009-06-15 06:20:41 51°13.92 2°55.641 19.2794 0.024816 0.12692 0.496866
2009-06-15 06:20:46 51°13.924 2°55.643 19.2799 0.02461 0.12588 0.496866
2009-06-15 06:20:50 51°13.927 2°55.644 19.2852 0.02461 0.12588 0.496866
2009-06-15 06:20:56 51°13.932 2°55.645 19.2885 0.02461 0.125882 0.496866
2009-06-15 06:21:01 51°13.935 2°55.647 19.2964 0.024713 0.126404 0.496866
2009-06-15 06:21:06 51°13.937 2°55.647 19.3024 0.024713 0.126404 0.496866
2009-06-15 06:21:10 51°13.939 2°55.648 19.3033 0.024713 0.126406 0.496866
2009-06-15 06:21:15 51°13.941 2°55.648 19.2999 0.024816 0.126927 0.496866
2009-06-15 06:21:20 51°13.942 2°55.649 19.2948 0.024713 0.126408 0.496866
2009-06-15 06:21:25 51°13.943 2°55.649 19.293 0.02461 0.125889 0.496866
2009-06-15 06:21:30 51°13.943 2°55.648 19.2926 0.02461 0.125889 0.496866
2009-06-15 06:21:34 51°13.944 2°55.648 19.2938 0.024713 0.126408 0.496866
2009-06-15 06:21:39 51°13.944 2°55.648 19.2946 0.024713 0.12641 0.496866
2009-06-15 06:21:44 51°13.944 2°55.647 19.2948 0.024713 0.126412 0.53169
2009-06-15 06:21:49 51°13.944 2°55.646 19.295 0.024713 0.126412 0.53169
2009-06-15 06:21:54 51°13.944 2°55.644 19.2956 0.024713 0.126412 0.496866
2009-06-15 06:21:59 51°13.944 2°55.642 19.2925 0.024713 0.126412 0.496866
2009-06-15 06:22:03 51°13.944 2°55.64 19.2876 0.024508 0.125376 0.496866
2009-06-15 06:22:09 51°13.944 2°55.637 19.282 0.02461 0.125891 0.496866
2009-06-15 06:22:13 51°13.944 2°55.634 19.1675 0.024302 0.124333 0.53169
2009-06-15 06:22:18 51°13.944 2°55.631 18.4325 0.04087 0.210126 1.297819
2009-06-15 06:22:23 51°13.945 2°55.626 18.071 0.043751 0.225568 1.332643
2009-06-15 06:22:28 51°13.946 2°55.622 17.9324 0.043751 0.225568 1.332643
2009-06-15 06:22:33 51°13.947 2°55.617 17.8272 3.438223 23.276197 1.785356
2009-06-15 06:22:38 51°13.948 2°55.611 17.7504 4.265785 30.249386 2.238069
2009-06-15 06:22:42 51°13.95 2°55.607 17.7246 4.353903 31.401287 2.969374
2009-06-15 06:22:47 51°13.952 2°55.602 17.701 4.333051 31.72225 1.82018
2009-06-15 06:22:52 51°13.955 2°55.596 17.6801 4.086737 30.069913 1.611236
2009-06-15 06:22:57 51°13.958 2°55.591 17.6582 4.086737 30.069913 1.611236
2009-06-15 06:23:02 51°13.961 2°55.585 17.6338 4.092654 30.331904 1.64606
2009-06-15 06:23:07 51°13.965 2°55.579 17.6245 3.831742 28.363776 1.64606
2009-06-15 06:23:12 51°13.969 2°55.573 17.6163 3.700408 27.394323 1.576412
2009-06-15 06:23:17 51°13.974 2°55.567 17.5749 3.623926 26.836962 1.541588
2009-06-15 06:23:22 51°13.979 2°55.56 17.5706 3.586312 26.579827 1.506764
2009-06-15 06:23:27 51°13.985 2°55.553 17.5658 3.586312 26.579827 1.506764
2009-06-15 06:23:32 51°13.992 2°55.546 17.5752 3.557093 26.37835 1.506764
2009-06-15 06:23:37 51°13.999 2°55.538 17.5766 3.542588 26.287827 1.506764
2009-06-15 06:23:42 51°14.007 2°55.53 17.5755 3.536475 26.260083 1.785356
2009-06-15 06:23:47 51°14.015 2°55.522 17.5741 3.539273 26.298995 2.098773
2009-06-15 06:23:52 51°14.023 2°55.513 17.5637 3.535336 26.28505 2.029124
2009-06-15 06:23:57 51°14.031 2°55.504 17.561 3.535336 26.28505 2.029124
2009-06-15 06:24:02 51°14.04 2°55.495 17.5528 3.532332 26.275183 1.855004
2009-06-15 06:24:07 51°14.05 2°55.486 17.5438 3.52912 26.256927 1.750532
2009-06-15 06:24:12 51°14.059 2°55.477 17.5226 3.532021 26.28495 1.680884
2009-06-15 06:24:17 51°14.069 2°55.468 17.5362 3.536787 26.328367 1.64606
2009-06-15 06:24:22 51°14.079 2°55.459 17.5132 3.531089 26.284458 1.750532
2009-06-15 06:24:27 51°14.09 2°55.449 17.5159 3.531089 26.284458 1.750532
2009-06-15 06:24:32 51°14.1 2°55.439 17.4929 3.551914 26.461969 1.785356
2009-06-15 06:24:37 51°14.111 2°55.429 17.4872 3.558649 26.524843 1.959476
2009-06-15 06:24:42 51°14.122 2°55.419 17.4707 3.56383 26.571802 2.133597
2009-06-15 06:24:47 51°14.133 2°55.408 17.4461 3.567353 26.609251 2.307717
2009-06-15 06:24:52 51°14.144 2°55.397 17.4453 3.569633 26.634357 2.481837
2009-06-15 06:24:57 51°14.155 2°55.386 17.4247 3.569633 26.634357 2.481837
2009-06-15 06:25:02 51°14.166 2°55.375 17.4138 3.571913 26.659999 2.621133
2009-06-15 06:25:07 51°14.177 2°55.363 17.3767 3.575436 26.697518 2.830078
2009-06-15 06:25:12 51°14.188 2°55.351 17.382 3.579995 26.744169 3.073846
2009-06-15 06:25:17 51°14.199 2°55.338 17.36 3.586523 26.808225 3.28279
2009-06-15 06:25:22 51°14.211 2°55.325 17.3764 3.590461 26.853503 3.387263
2009-06-15 06:25:27 51°14.222 2°55.312 17.37 3.590461 26.853503 3.387263
2009-06-15 06:25:32 51°14.232 2°55.297 17.3488 3.592844 26.88435 3.665855
2009-06-15 06:25:37 51°14.243 2°55.282 17.3512 3.597197 26.933156 4.083744
2009-06-15 06:25:42 51°14.253 2°55.266 17.3103 3.603103 26.997584 4.153392
2009-06-15 06:25:47 51°14.263 2°55.249 17.2791 3.608078 27.046892 4.083744
2009-06-15 06:25:52 51°14.274 2°55.233 17.266 3.606627 27.043348 4.083744
2009-06-15 06:25:57 51°14.284 2°55.215 17.2473 3.606627 27.043348 4.083744
2009-06-15 06:26:02 51°14.294 2°55.197 17.2439 3.606316 27.046087 4.257864
2009-06-15 06:26:07 51°14.304 2°55.179 17.228 3.607974 27.066804 4.39716
2009-06-15 06:26:12 51°14.314 2°55.162 17.2105 3.613052 27.119196 4.780225
2009-06-15 06:26:17 51°14.326 2°55.146 17.2126 3.621135 27.198813 5.198113
2009-06-15 06:26:22 51°14.337 2°55.128 17.1992 3.631809 27.303359 5.616002
2009-06-15 06:26:27 51°14.348 2°55.111 17.1947 3.631809 27.303359 5.616002
2009-06-15 06:26:32 51°14.36 2°55.094 17.1848 3.641447 27.396715 6.033891
2009-06-15 06:26:37 51°14.371 2°55.077 17.1946 3.653261 27.510004 6.277659
2009-06-15 06:26:42 51°14.383 2°55.061 17.204 3.660827 27.585755 6.730372
2009-06-15 06:26:47 51°14.396 2°55.045 17.1667 3.667149 27.649003 6.834844
2009-06-15 06:26:52 51°14.409 2°55.03 17.1447 3.6743 27.716514 7.078612
2009-06-15 06:26:57 51°14.422 2°55.015 17.1315 3.6743 27.716514 7.078612
2009-06-15 06:27:02 51°14.436 2°54.999 17.1265 3.68197 27.788972 7.043788
2009-06-15 06:27:07 51°14.448 2°54.984 17.1247 3.68425 27.812475 7.078612
2009-06-15 06:27:12 51°14.462 2°54.968 17.1113 3.68653 27.834886 7.183084
2009-06-15 06:27:17 51°14.475 2°54.952 17.1018 3.690261 27.871674 7.705445
2009-06-15 06:27:22 51°14.488 2°54.936 17.1055 3.694407 27.915276 7.775093
2009-06-15 06:27:27 51°14.501 2°54.92 17.088 3.694407 27.915276 7.775093
2009-06-15 06:27:32 51°14.514 2°54.904 17.0836 3.698553 27.960576 7.670621
2009-06-15 06:27:37 51°14.528 2°54.889 17.0698 3.701144 27.993974 7.879566
2009-06-15 06:27:42 51°14.542 2°54.874 17.0681 3.703632 28.022085 8.018862
2009-06-15 06:27:47 51°14.556 2°54.86 17.0692 3.707571 28.06352 8.158158
2009-06-15 06:27:52 51°14.569 2°54.844 17.0514 3.711613 28.10251 8.297454
2009-06-15 06:27:57 51°14.583 2°54.829 17.0531 3.711613 28.10251 8.297454
2009-06-15 06:28:02 51°14.596 2°54.814 17.0545 3.711095 28.105964 8.401926
2009-06-15 06:28:07 51°14.609 2°54.798 17.0397 3.715655 28.148785 8.541223
2009-06-15 06:28:12 51°14.622 2°54.783 17.0317 3.72374 28.223524 8.819815
2009-06-15 06:28:17 51°14.636 2°54.768 17.0325 3.730996 28.291341 8.993935
2009-06-15 06:28:22 51°14.649 2°54.753 17.0099 3.743331 28.40144 9.307352
2009-06-15 06:28:27 51°14.663 2°54.737 17.0047 3.743331 28.40144 9.307352
2009-06-15 06:28:32 51°14.676 2°54.722 16.9867 3.750172 28.46419 9.307352
2009-06-15 06:28:37 51°14.69 2°54.707 16.9827 3.757532 28.529648 9.55112
2009-06-15 06:28:42 51°14.703 2°54.692 16.9789 3.767068 28.615217 9.794888
2009-06-15 06:28:47 51°14.717 2°54.677 16.9647 3.781063 28.739634 10.003833
2009-06-15 06:28:52 51°14.73 2°54.661 16.953 3.792673 28.845749 10.282425
2009-06-15 06:28:57 51°14.744 2°54.646 16.9377 3.792673 28.845749 10.282425
2009-06-15 06:29:02 51°14.757 2°54.63 16.9456 3.797546 28.894986 10.526194
2009-06-15 06:29:07 51°14.77 2°54.615 16.946 3.795991 28.891043 10.735138
2009-06-15 06:29:12 51°14.783 2°54.599 16.938 3.826159 29.152749 10.874434
2009-06-15 06:29:17 51°14.796 2°54.584 16.9186 3.836111 29.244062 11.396795
2009-06-15 06:29:22 51°14.81 2°54.568 16.9163 3.851352 29.38382 11.745035
2009-06-15 06:29:27 51°14.823 2°54.553 16.9201 3.851352 29.38382 11.745035
2009-06-15 06:29:32 51°14.837 2°54.539 16.9059 3.870118 29.551935 11.77986
2009-06-15 06:29:37 51°14.851 2°54.524 16.905 3.877687 29.622139 11.814684
2009-06-15 06:29:42 51°14.865 2°54.51 16.8994 3.885982 29.695005 12.1281
2009-06-15 06:29:47 51°14.879 2°54.495 16.8927 3.900291 29.822035 12.232572
2009-06-15 06:29:52 51°14.893 2°54.48 16.8947 3.909831 29.910971 12.232572
2009-06-15 06:29:57 51°14.907 2°54.465 16.8914 3.909831 29.910971 12.232572
2009-06-15 06:30:02 51°14.921 2°54.45 16.8732 3.913875 29.951382 12.337044
2009-06-15 06:30:07 51°14.935 2°54.435 16.8818 3.918956 30.00005 12.371868
2009-06-15 06:30:12 51°14.949 2°54.42 16.8722 3.924452 30.05168 12.545989
2009-06-15 06:30:17 51°14.963 2°54.405 16.8617 3.929948 30.104541 12.545989
2009-06-15 06:30:22 51°14.976 2°54.39 16.862 3.935547 30.154097 12.615637
2009-06-15 06:30:27 51°14.99 2°54.375 16.8499 3.935547 30.154097 12.615637
2009-06-15 06:30:32 51°15.003 2°54.359 16.8557 3.942184 30.21433 12.754933
2009-06-15 06:30:37 51°15.016 2°54.344 16.8547 3.950791 30.294442 12.894229
2009-06-15 06:30:41 51°15.027 2°54.331 16.8378 3.955665 30.339695 12.859405
2009-06-15 06:30:47 51°15.041 2°54.31 16.8344 3.960435 30.385906 12.998701
2009-06-15 06:30:52 51°15.053 2°54.291 16.8277 3.966347 30.441282 13.033525
2009-06-15 06:30:57 51°15.063 2°54.272 16.8265 3.966347 30.441282 13.033525
2009-06-15 06:31:02 51°15.073 2°54.252 16.8278 3.971532 30.489871 13.137998
2009-06-15 06:31:06 51°15.081 2°54.236 16.8196 3.977651 30.546467 13.172822
2009-06-15 06:31:12 51°15.092 2°54.211 16.8153 3.978273 30.554236 13.312118
2009-06-15 06:31:17 51°15.099 2°54.189 16.812 3.986881 30.633394 13.486238
2009-06-15 06:31:22 51°15.107 2°54.166 16.8119 3.992066 30.683306 13.660358
2009-06-15 06:31:26 51°15.112 2°54.148 16.8075 3.992066 30.683306 13.660358
2009-06-15 06:31:32 51°15.119 2°54.12 16.8053 3.995592 30.719036 13.799655
2009-06-15 06:31:37 51°15.124 2°54.095 16.8027 3.999015 30.751428 13.555886
2009-06-15 06:31:42 51°15.128 2°54.071 16.7953 4.000882 30.771121 13.486238
2009-06-15 06:31:47 51°15.132 2°54.046 16.7968 4.002438 30.788153 13.555886
2009-06-15 06:31:51 51°15.135 2°54.027 16.7916 4.006275 30.824747 13.451414
2009-06-15 06:31:57 51°15.138 2°53.997 16.7918 4.006275 30.824747 13.451414
2009-06-15 06:32:02 51°15.14 2°53.972 16.7869 4.008246 30.843494 13.451414
2009-06-15 06:32:07 51°15.141 2°53.946 16.786 4.010942 30.869707 13.521062
2009-06-15 06:32:12 51°15.143 2°53.921 16.78 4.013224 30.892371 13.486238
2009-06-15 06:32:17 51°15.144 2°53.896 16.78 4.014572 30.907655 13.555886
2009-06-15 06:32:22 51°15.144 2°53.87 16.774 4.017061 30.93149 13.486238
2009-06-15 06:32:27 51°15.145 2°53.845 16.7738 4.017061 30.93149 13.486238
2009-06-15 06:32:32 51°15.145 2°53.82 16.773 4.016543 30.929523 13.555886
2009-06-15 06:32:37 51°15.146 2°53.794 16.7713 4.020173 30.964399 13.451414
2009-06-15 06:32:42 51°15.147 2°53.769 16.7717 4.021729 30.979616 13.486238
2009-06-15 06:32:46 51°15.148 2°53.748 16.7701 4.023388 30.996971 13.41659
2009-06-15 06:32:52 51°15.15 2°53.718 16.7674 4.021418 30.982543 13.381766
2009-06-15 06:32:57 51°15.151 2°53.692 16.7639 4.021418 30.982543 13.381766
2009-06-15 06:33:02 51°15.155 2°53.667 16.7637 4.022766 30.996608 13.277294
2009-06-15 06:33:07 51°15.157 2°53.642 16.7627 4.026811 31.032585 13.381766
2009-06-15 06:33:12 51°15.16 2°53.616 16.7589 4.028678 31.049241 13.277294
2009-06-15 06:33:17 51°15.162 2°53.591 16.7628 4.029404 31.057348 13.312118
2009-06-15 06:33:22 51°15.165 2°53.566 16.7624 4.030441 31.067504 13.277294
2009-06-15 06:33:27 51°15.168 2°53.541 16.7628 4.030441 31.067504 13.277294
2009-06-15 06:33:32 51°15.171 2°53.515 16.7571 4.031375 31.077395 13.24247
2009-06-15 06:33:37 51°15.174 2°53.49 16.7523 4.031686 31.081317 13.277294
2009-06-15 06:33:42 51°15.178 2°53.465 16.7536 4.028989 31.060647 13.103174
2009-06-15 06:33:46 51°15.18 2°53.445 16.7512 4.033138 31.098165 13.033525
2009-06-15 06:33:52 51°15.184 2°53.415 16.7492 4.031167 31.081232 13.137998
2009-06-15 06:33:57 51°15.187 2°53.39 16.7533 4.031167 31.081232 13.137998
2009-06-15 06:34:02 51°15.191 2°53.366 16.7528 4.033034 31.097898 13.24247
2009-06-15 06:34:07 51°15.194 2°53.341 16.7492 4.033242 31.100306 13.172822
2009-06-15 06:34:12 51°15.197 2°53.316 16.7472 4.035316 31.120007 13.172822
2009-06-15 06:34:17 51°15.201 2°53.291 16.7463 4.03459 31.116269 13.172822
2009-06-15 06:34:22 51°15.204 2°53.266 16.746 4.034901 31.120819 13.172822
2009-06-15 06:34:27 51°15.208 2°53.242 16.7459 4.034901 31.120819 13.172822
2009-06-15 06:34:32 51°15.212 2°53.217 16.7461 4.036872 31.137759 13.172822
2009-06-15 06:34:37 51°15.216 2°53.192 16.7436 4.033864 31.11253 13.137998
2009-06-15 06:34:42 51°15.22 2°53.168 16.7436 4.037806 31.147035 13.207646
2009-06-15 06:34:47 51°15.225 2°53.143 16.7428 4.036976 31.141154 13.172822
2009-06-15 06:34:52 51°15.229 2°53.119 16.7417 4.038635 31.1573 13.207646
2009-06-15 06:34:57 51°15.233 2°53.094 16.7417 4.038635 31.1573 13.207646
2009-06-15 06:35:02 51°15.237 2°53.069 16.7402 4.038947 31.159975 13.277294
2009-06-15 06:35:07 51°15.241 2°53.045 16.7379 4.039361 31.164169 13.312118
2009-06-15 06:35:12 51°15.245 2°53.02 16.7361 4.038324 31.155877 13.381766
2009-06-15 06:35:17 51°15.248 2°52.995 16.7338 4.039465 31.16694 13.41659
2009-06-15 06:35:22 51°15.252 2°52.971 16.7295 4.038532 31.15954 13.486238
2009-06-15 06:35:26 51°15.255 2°52.951 16.7271 4.038532 31.15954 13.486238
2009-06-15 06:35:32 51°15.259 2°52.921 16.7277 4.04154 31.187286 13.486238
2009-06-15 06:35:37 51°15.263 2°52.897 16.7256 4.042784 31.198618 13.625534
2009-06-15 06:35:42 51°15.267 2°52.872 16.7208 4.044133 31.211471 13.730007
2009-06-15 06:35:47 51°15.27 2°52.847 16.7195 4.045274 31.223168 13.834479
2009-06-15 06:35:52 51°15.274 2°52.823 16.7141 4.046726 31.236917 14.008599
2009-06-15 06:35:57 51°15.278 2°52.798 16.711 4.046726 31.236917 14.008599
2009-06-15 06:36:02 51°15.281 2°52.773 16.7084 4.047867 31.248618 13.904127
2009-06-15 06:36:07 51°15.285 2°52.749 16.7065 4.048489 31.255859 14.008599
2009-06-15 06:36:12 51°15.289 2°52.724 16.7058 4.050149 31.271398 14.147895
2009-06-15 06:36:17 51°15.293 2°52.7 16.7018 4.048904 31.263831 14.182719
2009-06-15 06:36:22 51°15.297 2°52.675 16.6981 4.053261 31.303846 14.217543
2009-06-15 06:36:26 51°15.3 2°52.655 16.6962 4.053261 31.303846 14.217543
2009-06-15 06:36:32 51°15.304 2°52.626 16.6906 4.055128 31.32307 14.322015
2009-06-15 06:36:37 51°15.309 2°52.601 16.6895 4.056476 31.335311 14.391664
2009-06-15 06:36:42 51°15.312 2°52.576 16.6861 4.055646 31.331318 14.426488
2009-06-15 06:36:47 51°15.316 2°52.551 16.687 4.059069 31.363321 14.565784
2009-06-15 06:36:51 51°15.319 2°52.532 16.6823 4.060418 31.378094 14.670256
2009-06-15 06:36:57 51°15.324 2°52.502 16.6796 4.062803 31.401175 14.844376
2009-06-15 06:37:02 51°15.328 2°52.478 16.6812 4.062803 31.401175 14.844376
2009-06-15 06:37:07 51°15.332 2°52.453 16.6756 4.064256 31.416217 14.774728
2009-06-15 06:37:12 51°15.336 2°52.429 16.6744 4.065915 31.433683 14.774728
2009-06-15 06:37:17 51°15.341 2°52.404 16.6712 4.067367 31.448733 14.774728
2009-06-15 06:37:22 51°15.345 2°52.38 16.6668 4.068612 31.461363 14.948848
2009-06-15 06:37:27 51°15.349 2°52.355 16.6672 4.068612 31.461363 14.948848
2009-06-15 06:37:32 51°15.353 2°52.331 16.6635 4.069961 31.47489 15.018497
2009-06-15 06:37:37 51°15.357 2°52.306 16.6618 4.071205 31.487525 15.088145
2009-06-15 06:37:42 51°15.361 2°52.282 16.6594 4.072658 31.502586 15.157793
2009-06-15 06:37:47 51°15.365 2°52.257 16.6588 4.073902 31.515861 15.262265
2009-06-15 06:37:52 51°15.369 2°52.233 16.6559 4.075562 31.531447 15.366737
2009-06-15 06:37:57 51°15.373 2°52.208 16.6529 4.075562 31.531447 15.366737
2009-06-15 06:38:02 51°15.377 2°52.184 16.6483 4.076807 31.544091 15.297089
2009-06-15 06:38:07 51°15.381 2°52.159 16.646 4.078155 31.557632 15.436385
2009-06-15 06:38:12 51°15.385 2°52.135 16.6461 4.0794 31.571554 15.471209
2009-06-15 06:38:17 51°15.389 2°52.11 16.6404 4.080541 31.58331 15.436385
2009-06-15 06:38:22 51°15.393 2°52.086 16.6392 4.078467 31.566679 15.610505
2009-06-15 06:38:27 51°15.397 2°52.062 16.6344 4.078467 31.566679 15.610505
2009-06-15 06:38:32 51°15.402 2°52.038 16.6309 4.082097 31.599923 15.645329
2009-06-15 06:38:37 51°15.406 2°52.013 16.6253 4.083549 31.615008 15.923922
2009-06-15 06:38:42 51°15.411 2°51.989 16.6211 4.084483 31.625618 15.680154
2009-06-15 06:38:47 51°15.415 2°51.965 16.619 4.085209 31.633801 15.749802
2009-06-15 06:38:51 51°15.419 2°51.946 16.6143 4.086454 31.647102 15.889098
2009-06-15 06:38:57 51°15.424 2°51.917 16.6172 4.086454 31.647102 15.889098
2009-06-15 06:39:02 51°15.428 2°51.892 16.6115 4.087388 31.658995 16.098042
2009-06-15 06:39:07 51°15.433 2°51.868 16.6087 4.08884 31.674733 16.028394
2009-06-15 06:39:12 51°15.437 2°51.844 16.6056 4.090189 31.689579 16.16769
2009-06-15 06:39:17 51°15.442 2°51.819 16.5996 4.091433 31.704812 16.16769
2009-06-15 06:39:22 51°15.446 2°51.795 16.6006 4.092367 31.71608 16.16769
2009-06-15 06:39:27 51°15.45 2°51.77 16.5946 4.092367 31.71608 16.16769
2009-06-15 06:39:32 51°15.454 2°51.746 16.5928 4.093093 31.724917 16.237338
2009-06-15 06:39:37 51°15.458 2°51.721 16.5869 4.093716 31.731578 16.306987
2009-06-15 06:39:42 51°15.462 2°51.696 16.5862 4.094546 31.741955 16.446283
2009-06-15 06:39:47 51°15.467 2°51.672 16.5798 4.095479 31.751949 16.446283
2009-06-15 06:39:52 51°15.471 2°51.648 16.5793 4.096205 31.762716 16.481107
2009-06-15 06:39:57 51°15.476 2°51.623 16.5804 4.096205 31.762716 16.481107
2009-06-15 06:40:02 51°15.48 2°51.598 16.5753 4.096724 31.769126 16.411459
2009-06-15 06:40:07 51°15.484 2°51.574 16.5732 4.097658 31.781693 16.515931
2009-06-15 06:40:12 51°15.489 2°51.549 16.571 4.09828 31.790287 16.515931
2009-06-15 06:40:17 51°15.493 2°51.525 16.5662 4.099214 31.800934 16.411459
2009-06-15 06:40:22 51°15.498 2°51.501 16.5646 4.09994 31.81043 16.690051
2009-06-15 06:40:27 51°15.502 2°51.476 16.563 4.100355 31.816591 16.550755
2009-06-15 06:40:32 51°15.506 2°51.451 16.5611 4.100355 31.816591 16.550755
2009-06-15 06:40:37 51°15.511 2°51.427 16.5579 4.100977 31.82455 16.550755
2009-06-15 06:40:42 51°15.515 2°51.402 16.5548 4.101392 31.830071 16.655227
2009-06-15 06:40:47 51°15.519 2°51.378 16.5557 4.102222 31.840472 16.759699
2009-06-15 06:40:52 51°15.524 2°51.353 16.5536 4.102845 31.848435 16.620403
2009-06-15 06:40:57 51°15.528 2°51.329 16.549 4.102845 31.848435 16.620403
2009-06-15 06:41:02 51°15.532 2°51.304 16.5434 4.103467 31.855756 16.585579
2009-06-15 06:41:07 51°15.536 2°51.279 16.544 4.103986 31.862179 16.585579
2009-06-15 06:41:12 51°15.54 2°51.255 16.5417 4.104816 31.871943 16.655227
2009-06-15 06:41:17 51°15.544 2°51.23 16.5367 4.105542 31.880166 16.655227
2009-06-15 06:41:22 51°15.548 2°51.205 16.5345 4.106061 31.886592 16.724875
2009-06-15 06:41:27 51°15.552 2°51.18 16.5328 4.106061 31.886592 16.724875
2009-06-15 06:41:32 51°15.555 2°51.156 16.531 4.106683 31.893919 16.759699
2009-06-15 06:41:37 51°15.559 2°51.131 16.5317 4.107721 31.906131 16.724875
2009-06-15 06:41:42 51°15.562 2°51.106 16.5271 4.108343 31.914106 16.829347
2009-06-15 06:41:47 51°15.566 2°51.081 16.5241 4.109069 31.922981 16.829347
2009-06-15 06:41:51 51°15.569 2°51.062 16.5207 4.109692 31.930959 16.690051
2009-06-15 06:41:57 51°15.574 2°51.032 16.5151 4.109692 31.930959 16.690051
2009-06-15 06:42:02 51°15.577 2°51.007 16.5146 4.110107 31.93714 16.794523
2009-06-15 06:42:07 51°15.581 2°50.982 16.5105 4.110729 31.944474 16.829347
2009-06-15 06:42:12 51°15.585 2°50.958 16.5137 4.111144 31.950657 16.898995
2009-06-15 06:42:17 51°15.589 2°50.933 16.5092 4.111559 31.955547 16.794523
2009-06-15 06:42:22 51°15.593 2°50.908 16.5056 4.112182 31.964825 16.898995
2009-06-15 06:42:27 51°15.597 2°50.884 16.502 4.112182 31.964825 16.898995
2009-06-15 06:42:32 51°15.602 2°50.859 16.4987 4.112804 31.971517 16.794523
2009-06-15 06:42:37 51°15.606 2°50.834 16.4925 4.113426 31.980798 16.794523
2009-06-15 06:42:42 51°15.611 2°50.81 16.4898 4.113841 31.98634 16.690051
2009-06-15 06:42:46 51°15.614 2°50.79 16.4888 4.114153 31.990982 16.724875
2009-06-15 06:42:52 51°15.62 2°50.76 16.4848 4.114671 31.997425 16.759699
2009-06-15 06:42:57 51°15.624 2°50.736 16.4828 4.114671 31.997425 16.759699
2009-06-15 06:43:02 51°15.628 2°50.711 16.482 4.115294 32.004769 16.724875
2009-06-15 06:43:06 51°15.631 2°50.692 16.4803 4.115916 32.013411 16.620403
2009-06-15 06:43:12 51°15.636 2°50.662 16.4799 4.11685 32.025404 16.620403
2009-06-15 06:43:17 51°15.64 2°50.637 16.4749 4.117473 32.034699 16.550755
2009-06-15 06:43:22 51°15.644 2°50.613 16.4757 4.117784 32.039997 16.550755
2009-06-15 06:43:27 51°15.648 2°50.589 16.474 4.117784 32.039997 16.550755
2009-06-15 06:43:32 51°15.652 2°50.564 16.4692 4.118406 32.047997 16.481107
2009-06-15 06:43:37 51°15.657 2°50.54 16.4677 4.119029 32.055349 16.481107
2009-06-15 06:43:42 51°15.661 2°50.515 16.4657 4.119547 32.061152 16.481107
2009-06-15 06:43:46 51°15.664 2°50.496 16.4644 4.120066 32.067605 16.376635
2009-06-15 06:43:52 51°15.669 2°50.466 16.4635 4.120377 32.072258 16.515931
2009-06-15 06:43:57 51°15.673 2°50.442 16.4623 4.120377 32.072258 16.515931
2009-06-15 06:44:02 51°15.677 2°50.418 16.4581 4.120896 32.078063 16.446283
2009-06-15 06:44:07 51°15.681 2°50.394 16.4601 4.121622 32.08567 16.306987
2009-06-15 06:44:12 51°15.685 2°50.369 16.4581 4.122245 32.093678 16.376635
2009-06-15 06:44:17 51°15.69 2°50.345 16.4585 4.122764 32.100136 16.306987
2009-06-15 06:44:22 51°15.694 2°50.321 16.4544 4.123282 32.106595 16.272162
2009-06-15 06:44:27 51°15.698 2°50.297 16.4543 4.123282 32.106595 16.272162
2009-06-15 06:44:32 51°15.703 2°50.272 16.4518 4.123697 32.110851 16.376635
2009-06-15 06:44:37 51°15.708 2°50.248 16.4507 4.124423 32.119114 16.16769
2009-06-15 06:44:42 51°15.713 2°50.224 16.4499 4.124838 32.124022 16.237338
2009-06-15 06:44:47 51°15.718 2°50.2 16.4505 4.125357 32.129181 16.306987
2009-06-15 06:44:52 51°15.723 2°50.176 16.4495 4.12598 32.136544 16.306987
2009-06-15 06:44:57 51°15.727 2°50.152 16.4462 4.12598 32.136544 16.306987
2009-06-15 06:45:02 51°15.732 2°50.128 16.4409 4.126602 32.143257 16.237338
2009-06-15 06:45:07 51°15.737 2°50.103 16.4394 4.127328 32.150873 16.202514
2009-06-15 06:45:12 51°15.741 2°50.079 16.4365 4.127951 32.157587 16.098042
2009-06-15 06:45:17 51°15.746 2°50.054 16.4381 4.128677 32.164552 16.098042
2009-06-15 06:45:22 51°15.75 2°50.03 16.4333 4.129507 32.173071 16.063218
2009-06-15 06:45:26 51°15.753 2°50.01 16.4324 4.129507 32.173071 16.063218
2009-06-15 06:45:32 51°15.759 2°49.981 16.4287 4.130026 32.178886 16.063218
2009-06-15 06:45:37 51°15.763 2°49.956 16.4233 4.130959 32.189615 15.99357
2009-06-15 06:45:42 51°15.768 2°49.932 16.4216 4.131997 32.200595 15.854274
2009-06-15 06:45:47 51°15.772 2°49.907 16.4171 4.133138 32.211172 15.889098
2009-06-15 06:45:52 51°15.776 2°49.882 16.4099 4.133864 32.220102 15.889098
2009-06-15 06:45:57 51°15.781 2°49.858 16.4067 4.133864 32.220102 15.889098
2009-06-15 06:46:02 51°15.785 2°49.833 16.4013 4.135005 32.23199 15.81945
2009-06-15 06:46:07 51°15.79 2°49.809 16.3947 4.136354 32.245684 15.81945
2009-06-15 06:46:12 51°15.794 2°49.784 16.3904 4.137495 32.25823 15.749802
2009-06-15 06:46:17 51°15.798 2°49.759 16.386 4.138636 32.271434 15.749802
2009-06-15 06:46:22 51°15.802 2°49.735 16.3782 4.139778 32.285952 15.645329
2009-06-15 06:46:27 51°15.807 2°49.71 16.3778 4.139778 32.285952 15.645329
2009-06-15 06:46:32 51°15.81 2°49.686 16.3717 4.140919 32.300475 15.610505
2009-06-15 06:46:37 51°15.814 2°49.661 16.3686 4.141956 32.312787 15.575681
2009-06-15 06:46:42 51°15.818 2°49.636 16.3624 4.143098 32.327975 15.645329
2009-06-15 06:46:46 51°15.821 2°49.617 16.3638 4.144239 32.341198 15.645329
2009-06-15 06:46:52 51°15.826 2°49.587 16.3568 4.14538 32.357054 15.471209
2009-06-15 06:46:57 51°15.829 2°49.563 16.3565 4.14538 32.357054 15.471209
2009-06-15 06:47:02 51°15.833 2°49.538 16.3474 4.146625 32.373162 15.575681
2009-06-15 06:47:07 51°15.836 2°49.513 16.3406 4.147455 32.383027 15.575681
2009-06-15 06:47:12 51°15.84 2°49.489 16.3348 4.137392 32.299951 15.540857
2009-06-15 06:47:17 51°15.843 2°49.464 16.3285 4.149323 32.407864 15.506033
2009-06-15 06:47:22 51°15.847 2°49.439 16.3223 4.149841 32.415682 15.436385
2009-06-15 06:47:26 51°15.85 2°49.419 16.3193 4.149841 32.415682 15.436385
2009-06-15 06:47:32 51°15.854 2°49.39 16.3109 4.150568 32.42597 15.506033
2009-06-15 06:47:37 51°15.858 2°49.365 16.3087 4.151605 32.439636 15.610505
2009-06-15 06:47:42 51°15.862 2°49.341 16.3042 4.151709 32.443841 15.506033
2009-06-15 06:47:47 51°15.865 2°49.316 16.2983 4.152747 32.458173 15.540857
2009-06-15 06:47:52 51°15.869 2°49.291 16.2942 4.153992 32.474982 15.471209
2009-06-15 06:47:57 51°15.872 2°49.266 16.283 4.153992 32.474982 15.471209
2009-06-15 06:48:02 51°15.875 2°49.242 16.2801 4.154199 32.484728 15.575681
2009-06-15 06:48:07 51°15.877 2°49.217 16.2756 4.155756 32.502281 15.540857
2009-06-15 06:48:11 51°15.879 2°49.197 16.2715 4.155756 32.50824 15.575681
2009-06-15 06:48:17 51°15.88 2°49.167 16.2656 4.153992 32.498137 15.471209
2009-06-15 06:48:22 51°15.882 2°49.141 16.2581 4.155963 32.521976 15.471209
2009-06-15 06:48:27 51°15.883 2°49.116 16.2544 4.155963 32.521976 15.471209
2009-06-15 06:48:32 51°15.883 2°49.091 16.253 4.157623 32.541781 15.471209
2009-06-15 06:48:37 51°15.884 2°49.065 16.2478 4.157416 32.546602 15.575681
2009-06-15 06:48:42 51°15.884 2°49.04 16.2494 4.15918 32.565998 15.401561
2009-06-15 06:48:47 51°15.885 2°49.015 16.2437 4.159076 32.56974 15.540857
2009-06-15 06:48:52 51°15.885 2°48.989 16.2386 4.159802 32.582068 15.540857
2009-06-15 06:48:57 51°15.885 2°48.964 16.2383 4.159802 32.582068 15.540857
2009-06-15 06:49:02 51°15.885 2°48.939 16.2377 4.160944 32.596701 15.471209
2009-06-15 06:49:07 51°15.886 2°48.913 16.2291 4.162189 32.612246 15.436385
2009-06-15 06:49:12 51°15.886 2°48.888 16.2271 4.161774 32.612609 15.436385
2009-06-15 06:49:17 51°15.886 2°48.862 16.228 4.160425 32.603473 15.401561
2009-06-15 06:49:22 51°15.886 2°48.837 16.2234 4.16333 32.631551 15.471209
2009-06-15 06:49:27 51°15.886 2°48.812 16.2245 4.163849 32.638754 15.506033
2009-06-15 06:49:32 51°15.886 2°48.786 16.2161 4.163849 32.638754 15.506033
2009-06-15 06:49:37 51°15.886 2°48.761 16.2151 4.163226 32.635306 15.366737
2009-06-15 06:49:42 51°15.886 2°48.736 16.2135 4.164575 32.650442 15.401561
2009-06-15 06:49:46 51°15.886 2°48.716 16.2106 4.164887 32.6565 15.331913
2009-06-15 06:49:52 51°15.887 2°48.685 16.2046 4.163123 32.643729 15.297089
2009-06-15 06:49:57 51°15.887 2°48.66 16.2065 4.163123 32.643729 15.297089
2009-06-15 06:50:02 51°15.887 2°48.635 16.2008 4.165302 32.664802 15.227441
2009-06-15 06:50:06 51°15.887 2°48.614 16.2 4.165613 32.670196 15.157793
2009-06-15 06:50:12 51°15.888 2°48.584 16.1974 4.165924 32.676258 15.088145
2009-06-15 06:50:17 51°15.889 2°48.558 16.1989 4.166028 32.67917 15.157793
2009-06-15 06:50:22 51°15.889 2°48.533 16.1953 4.166132 32.683417 15.088145
2009-06-15 06:50:27 51°15.89 2°48.508 16.1937 4.166132 32.683417 15.088145
2009-06-15 06:50:32 51°15.89 2°48.482 16.1921 4.166339 32.688574 15.088145
2009-06-15 06:50:37 51°15.891 2°48.457 16.1913 4.166443 32.692155 15.088145
2009-06-15 06:50:42 51°15.891 2°48.432 16.1887 4.166651 32.695309 15.018497
2009-06-15 06:50:47 51°15.892 2°48.406 16.1878 4.166651 32.697982 14.983672
2009-06-15 06:50:52 51°15.892 2°48.381 16.1877 4.166754 32.700228 15.053321
2009-06-15 06:50:57 51°15.893 2°48.356 16.1873 4.166754 32.700228 15.053321
2009-06-15 06:51:02 51°15.894 2°48.33 16.1867 4.166858 32.703811 15.053321
2009-06-15 06:51:07 51°15.896 2°48.305 16.1838 4.166962 32.706726 15.122969
2009-06-15 06:51:12 51°15.897 2°48.279 16.186 4.167066 32.709642 15.018497
2009-06-15 06:51:17 51°15.898 2°48.254 16.1858 4.166236 32.703037 14.914024
2009-06-15 06:51:22 51°15.9 2°48.228 16.1829 4.167377 32.714376 14.983672
2009-06-15 06:51:27 51°15.901 2°48.203 16.1817 4.167377 32.715714 14.914024
2009-06-15 06:51:32 51°15.903 2°48.178 16.1809 4.167377 32.715714 14.914024
2009-06-15 06:51:37 51°15.905 2°48.152 16.1798 4.167481 32.717961 14.948848
2009-06-15 06:51:42 51°15.906 2°48.127 16.1805 4.167585 32.71954 14.8792
2009-06-15 06:51:47 51°15.908 2°48.101 16.178 4.167688 32.721118 14.844376
2009-06-15 06:51:52 51°15.909 2°48.076 16.1802 4.167896 32.722937 14.8792
2009-06-15 06:51:57 51°15.911 2°48.05 16.1792 4.167896 32.722937 14.8792
2009-06-15 06:52:02 51°15.912 2°48.025 16.1803 4.168103 32.726094 14.844376
2009-06-15 06:52:06 51°15.914 2°48.005 16.1778 4.168207 32.729012 14.844376
2009-06-15 06:52:12 51°15.915 2°47.974 16.1787 4.168415 32.7315 14.809552
2009-06-15 06:52:17 51°15.916 2°47.949 16.1764 4.168622 32.733989 14.844376
2009-06-15 06:52:22 51°15.917 2°47.924 16.1772 4.168933 32.737387 14.844376
2009-06-15 06:52:27 51°15.918 2°47.898 16.1769 4.168933 32.737387 14.844376
2009-06-15 06:52:32 51°15.919 2°47.873 16.1786 4.169037 32.737627 14.774728
2009-06-15 06:52:37 51°15.919 2°47.848 16.1795 4.169141 32.739206 14.739904
2009-06-15 06:52:42 51°15.92 2°47.823 16.1784 4.169556 32.743515 14.774728
2009-06-15 06:52:47 51°15.921 2°47.798 16.1796 4.169867 32.746243 14.809552
2009-06-15 06:52:52 51°15.922 2°47.773 16.182 4.170178 32.749642 14.774728
2009-06-15 06:52:57 51°15.923 2°47.748 16.1811 4.170593 32.753281 14.844376
2009-06-15 06:53:02 51°15.924 2°47.723 16.1816 4.170593 32.753281 14.844376
2009-06-15 06:53:07 51°15.925 2°47.697 16.184 4.170905 32.75601 14.739904
2009-06-15 06:53:12 51°15.926 2°47.672 16.183 4.171423 32.759888 14.809552
2009-06-15 06:53:17 51°15.927 2°47.647 16.1852 4.17215 32.766256 14.844376
2009-06-15 06:53:22 51°15.928 2°47.622 16.1855 4.172876 32.771954 14.948848
2009-06-15 06:53:27 51°15.929 2°47.597 16.1895 4.172876 32.771954 14.948848
2009-06-15 06:53:32 51°15.93 2°47.572 16.1887 4.173706 32.778561 14.914024
2009-06-15 06:53:37 51°15.931 2°47.547 16.1908 4.174225 32.782439 14.914024
2009-06-15 06:53:42 51°15.932 2°47.522 16.1944 4.174847 32.787227 14.844376
2009-06-15 06:53:47 51°15.934 2°47.497 16.1948 4.175366 32.790434 14.914024
2009-06-15 06:53:52 51°15.934 2°47.471 16.1957 4.1763 32.797951 14.948848
2009-06-15 06:53:57 51°15.936 2°47.446 16.1969 4.1763 32.797951 14.948848
2009-06-15 06:54:02 51°15.937 2°47.421 16.1986 4.177026 32.803649 14.844376
2009-06-15 06:54:07 51°15.938 2°47.396 16.2 4.177856 32.809585 15.018497
2009-06-15 06:54:12 51°15.939 2°47.371 16.2024 4.178582 32.814611 14.983672
2009-06-15 06:54:17 51°15.941 2°47.346 16.2044 4.179308 32.819636 15.018497
2009-06-15 06:54:22 51°15.941 2°47.321 16.2061 4.180138 32.824901 15.018497
2009-06-15 06:54:27 51°15.942 2°47.296 16.2059 4.180138 32.824901 15.018497
2009-06-15 06:54:32 51°15.943 2°47.27 16.206 4.180968 32.830835 14.983672
2009-06-15 06:54:37 51°15.945 2°47.245 16.2071 4.181591 32.834951 15.053321
2009-06-15 06:54:42 51°15.945 2°47.22 16.2109 4.182317 32.839976 14.948848
2009-06-15 06:54:47 51°15.947 2°47.195 16.2102 4.183043 32.845 14.983672
2009-06-15 06:54:52 51°15.948 2°47.17 16.2131 4.183562 32.847534 15.018497
2009-06-15 06:54:57 51°15.949 2°47.145 16.2133 4.184185 32.85232 15.053321
2009-06-15 06:55:02 51°15.95 2°47.12 16.2154 4.184185 32.85232 15.053321
2009-06-15 06:55:07 51°15.951 2°47.094 16.2159 4.1846 32.854615 15.053321
2009-06-15 06:55:12 51°15.953 2°47.069 16.2184 4.185222 32.859401 15.018497
2009-06-15 06:55:17 51°15.954 2°47.044 16.2201 4.185948 32.863753 15.157793
2009-06-15 06:55:22 51°15.955 2°47.019 16.2203 4.186467 32.867629 15.122969
2009-06-15 06:55:27 51°15.958 2°46.994 16.2221 4.186467 32.867629 15.122969
2009-06-15 06:55:32 51°15.96 2°46.969 16.2232 4.187089 32.871071 15.088145
2009-06-15 06:55:37 51°15.964 2°46.945 16.2239 4.187712 32.875857 15.122969
2009-06-15 06:55:42 51°15.967 2°46.92 16.2272 4.188334 32.879298 15.157793
2009-06-15 06:55:47 51°15.971 2°46.895 16.2271 4.188853 32.883174 15.088145
2009-06-15 06:55:52 51°15.975 2°46.871 16.2278 4.189476 32.887286 15.157793
2009-06-15 06:55:57 51°15.979 2°46.846 16.2272 4.189476 32.887286 15.157793
2009-06-15 06:56:02 51°15.984 2°46.821 16.2269 4.190098 32.890727 15.192617
2009-06-15 06:56:06 51°15.987 2°46.802 16.2266 4.190721 32.89484 15.262265
2009-06-15 06:56:12 51°15.993 2°46.773 16.2275 4.191447 32.899861 15.157793
2009-06-15 06:56:17 51°15.998 2°46.749 16.2286 4.191862 32.902155 15.262265
2009-06-15 06:56:22 51°16.003 2°46.725 16.2291 4.192484 32.906939 15.227441
2009-06-15 06:56:26 51°16.007 2°46.705 16.23 4.193003 32.910814 15.262265
2009-06-15 06:56:32 51°16.012 2°46.677 16.2315 4.193003 32.910814 15.262265
2009-06-15 06:56:37 51°16.017 2°46.653 16.2322 4.193833 32.918089 15.227441
2009-06-15 06:56:42 51°16.022 2°46.629 16.2315 4.194248 32.921727 15.192617
2009-06-15 06:56:46 51°16.026 2°46.61 16.2315 4.194871 32.926511 15.192617
2009-06-15 06:56:52 51°16.032 2°46.582 16.2291 4.195286 32.929477 15.192617
2009-06-15 06:56:57 51°16.037 2°46.558 16.2267 4.195805 32.933351 15.366737
2009-06-15 06:57:02 51°16.043 2°46.534 16.2273 4.195805 32.933351 15.366737
2009-06-15 06:57:06 51°16.047 2°46.515 16.2254 4.196323 32.937226 15.331913
2009-06-15 06:57:12 51°16.053 2°46.487 16.2267 4.196738 32.940191 15.297089
2009-06-15 06:57:17 51°16.059 2°46.463 16.2246 4.197257 32.944065 15.297089
2009-06-15 06:57:22 51°16.066 2°46.44 16.2242 4.197776 32.948612 15.401561
2009-06-15 06:57:26 51°16.071 2°46.422 16.2246 4.197776 32.948612 15.401561
2009-06-15 06:57:32 51°16.079 2°46.395 16.2217 4.198087 32.952014 15.436385
2009-06-15 06:57:37 51°16.086 2°46.372 16.2202 4.198398 32.956089 15.436385
2009-06-15 06:57:42 51°16.094 2°46.35 16.2218 4.198606 32.957908 15.436385
2009-06-15 06:57:47 51°16.101 2°46.327 16.2197 4.198814 32.959727 15.540857
2009-06-15 06:57:52 51°16.108 2°46.305 16.2188 4.199229 32.963366 15.506033
2009-06-15 06:57:57 51°16.115 2°46.282 16.2171 4.199229 32.963366 15.506033
2009-06-15 06:58:02 51°16.123 2°46.26 16.2154 4.199436 32.966532 15.575681
2009-06-15 06:58:07 51°16.13 2°46.237 16.212 4.195286 32.930822 15.436385
2009-06-15 06:58:12 51°16.138 2°46.215 16.2119 4.194248 32.923072 15.436385
2009-06-15 06:58:17 51°16.145 2°46.192 16.2116 4.199955 32.974449 15.645329
2009-06-15 06:58:22 51°16.153 2°46.17 16.2094 4.200162 32.977616 15.645329
2009-06-15 06:58:27 51°16.16 2°46.148 16.206 4.200266 32.979874 15.575681
2009-06-15 06:58:32 51°16.169 2°46.125 16.2072 4.200266 32.979874 15.575681
2009-06-15 06:58:37 51°16.176 2°46.103 16.2047 4.200266 32.981222 15.645329
2009-06-15 06:58:42 51°16.184 2°46.081 16.2024 4.20037 32.982131 15.575681
2009-06-15 06:58:47 51°16.192 2°46.059 16.1984 4.20037 32.98348 15.680154
2009-06-15 06:58:52 51°16.2 2°46.037 16.1957 4.20037 32.984828 15.575681
2009-06-15 06:58:57 51°16.208 2°46.014 16.1939 4.20037 32.984828 15.575681
2009-06-15 06:59:02 51°16.216 2°45.991 16.1935 4.200266 32.98594 15.540857
2009-06-15 06:59:06 51°16.222 2°45.973 16.1931 4.200163 32.986379 15.610505
2009-06-15 06:59:12 51°16.231 2°45.946 16.1896 4.200266 32.988637 15.714978
2009-06-15 06:59:17 51°16.238 2°45.923 16.1865 4.199955 32.987256 15.610505
2009-06-15 06:59:22 51°16.245 2°45.899 16.1843 4.199955 32.989953 15.645329
2009-06-15 06:59:27 51°16.252 2°45.876 16.1828 4.199955 32.989953 15.645329
2009-06-15 06:59:32 51°16.26 2°45.853 16.181 4.199851 32.991741 15.714978
2009-06-15 06:59:37 51°16.267 2°45.83 16.1773 4.199851 32.99309 15.645329
2009-06-15 06:59:42 51°16.274 2°45.806 16.1744 4.199644 32.993968 15.680154
2009-06-15 06:59:47 51°16.281 2°45.783 16.1717 4.199644 32.995992 15.645329
2009-06-15 06:59:52 51°16.289 2°45.759 16.1722 4.199748 32.998253 15.749802
2009-06-15 06:59:57 51°16.296 2°45.736 16.1702 4.199748 32.998253 15.749802
2009-06-15 07:00:02 51°16.304 2°45.713 16.1694 4.199644 32.999367 15.610505
2009-06-15 07:00:07 51°16.311 2°45.689 16.1709 4.199748 33.002977 15.749802
2009-06-15 07:00:12 51°16.319 2°45.666 16.1706 4.199748 33.005003 15.749802
2009-06-15 07:00:17 51°16.326 2°45.642 16.1685 4.199955 33.009525 15.749802
2009-06-15 07:00:22 51°16.333 2°45.618 16.1694 4.200059 33.012462 15.749802
2009-06-15 07:00:26 51°16.34 2°45.6 16.1707 4.196843 32.984904 15.81945
2009-06-15 07:00:32 51°16.349 2°45.573 16.1705 4.196843 32.984904 15.81945
2009-06-15 07:00:37 51°16.359 2°45.552 16.1693 4.196843 32.986929 15.784626
2009-06-15 07:00:42 51°16.368 2°45.53 16.1671 4.200578 33.020394 15.749802
2009-06-15 07:00:47 51°16.379 2°45.51 16.1659 4.200786 33.022892 15.680154
2009-06-15 07:00:52 51°16.39 2°45.489 16.1659 4.200889 33.024479 15.540857
2009-06-15 07:00:57 51°16.401 2°45.47 16.165 4.200889 33.024479 15.540857
2009-06-15 07:01:02 51°16.412 2°45.45 16.1663 4.201097 33.025625 15.714978
2009-06-15 07:01:07 51°16.424 2°45.431 16.1646 4.201304 33.026771 15.680154
2009-06-15 07:01:12 51°16.436 2°45.412 16.1614 4.201512 33.028593 15.714978
2009-06-15 07:01:17 51°16.448 2°45.393 16.1628 4.201719 33.031091 15.506033
2009-06-15 07:01:22 51°16.46 2°45.375 16.1631 4.202031 33.035852 15.575681
2009-06-15 07:01:27 51°16.473 2°45.357 16.1626 4.202031 33.035852 15.575681
2009-06-15 07:01:31 51°16.483 2°45.342 16.1588 4.202134 33.036763 15.506033
2009-06-15 07:01:37 51°16.498 2°45.321 16.158 4.202238 33.039702 15.540857
2009-06-15 07:01:42 51°16.511 2°45.303 16.1552 4.202238 33.040379 15.540857
2009-06-15 07:01:47 51°16.524 2°45.286 16.1513 4.202446 33.042877 15.436385
2009-06-15 07:01:52 51°16.536 2°45.267 16.1512 4.202446 33.043553 15.506033
2009-06-15 07:01:57 51°16.548 2°45.249 16.1494 4.202446 33.04423 15.436385
2009-06-15 07:02:02 51°16.56 2°45.23 16.1479 4.202446 33.04423 15.436385
2009-06-15 07:02:07 51°16.572 2°45.211 16.1443 4.20255 33.046494 15.436385
2009-06-15 07:02:12 51°16.584 2°45.192 16.1458 4.202757 33.048316 15.471209
2009-06-15 07:02:17 51°16.595 2°45.172 16.1429 4.202861 33.052611 15.401561
2009-06-15 07:02:22 51°16.607 2°45.153 16.1414 4.202861 33.054641 15.331913
2009-06-15 07:02:27 51°16.618 2°45.134 16.1393 4.202861 33.054641 15.331913
2009-06-15 07:02:32 51°16.629 2°45.114 16.1394 4.202861 33.056671 15.366737
2009-06-15 07:02:37 51°16.64 2°45.094 16.1387 4.202965 33.058936 15.366737
2009-06-15 07:02:42 51°16.652 2°45.075 16.1376 4.203069 33.061202 15.192617
2009-06-15 07:02:47 51°16.663 2°45.055 16.1349 4.203069 33.062556 15.297089
2009-06-15 07:02:52 51°16.674 2°45.035 16.1325 4.203172 33.064144 15.227441
2009-06-15 07:02:57 51°16.685 2°45.015 16.1328 4.203172 33.064144 15.227441
2009-06-15 07:03:02 51°16.696 2°44.996 16.1291 4.203069 33.064587 15.122969
2009-06-15 07:03:07 51°16.708 2°44.976 16.1301 4.203069 33.067296 15.088145
2009-06-15 07:03:12 51°16.719 2°44.957 16.1248 4.202861 33.06615 14.8792
2009-06-15 07:03:17 51°16.73 2°44.937 16.1233 4.202757 33.065915 14.809552
2009-06-15 07:03:22 51°16.741 2°44.917 16.1192 4.202654 33.067035 14.948848
2009-06-15 07:03:26 51°16.75 2°44.901 16.1168 4.202654 33.067035 14.948848
2009-06-15 07:03:32 51°16.763 2°44.878 16.1137 4.202446 33.067244 14.844376
2009-06-15 07:03:37 51°16.775 2°44.858 16.1099 4.202239 33.066775 14.8792
2009-06-15 07:03:42 51°16.785 2°44.838 16.1049 4.201927 33.066071 14.844376
2009-06-15 07:03:47 51°16.796 2°44.817 16.1077 4.201513 33.065134 14.844376
2009-06-15 07:03:52 51°16.806 2°44.797 16.1025 4.201409 33.065577 14.774728
2009-06-15 07:03:57 51°16.817 2°44.776 16.0968 4.201305 33.066697 14.670256
2009-06-15 07:04:02 51°16.827 2°44.755 16.0974 4.201305 33.066697 14.670256
2009-06-15 07:04:07 51°16.837 2°44.734 16.0935 4.200994 33.067349 14.635432
2009-06-15 07:04:12 51°16.847 2°44.713 16.0894 4.200683 33.068679 14.670256
2009-06-15 07:04:17 51°16.857 2°44.692 16.0868 4.200371 33.068654 14.774728
2009-06-15 07:04:22 51°16.867 2°44.671 16.0815 4.200164 33.069541 14.739904
2009-06-15 07:04:27 51°16.878 2°44.65 16.0779 4.200164 33.069541 14.739904
2009-06-15 07:04:32 51°16.887 2°44.629 16.0724 4.199853 33.069516 14.70508
2009-06-15 07:04:37 51°16.898 2°44.608 16.071 4.199749 33.071316 14.600608
2009-06-15 07:04:42 51°16.908 2°44.587 16.0654 4.199438 33.071291 14.809552
2009-06-15 07:04:47 51°16.918 2°44.566 16.0629 4.199438 33.074004 14.844376
2009-06-15 07:04:52 51°16.928 2°44.545 16.0567 4.19923 33.07557 14.914024
2009-06-15 07:04:57 51°16.938 2°44.525 16.0565 4.19923 33.07557 14.914024
2009-06-15 07:05:02 51°16.949 2°44.504 16.0519 4.199023 33.077137 14.914024
2009-06-15 07:05:07 51°16.959 2°44.483 16.0477 4.198608 33.076879 14.844376
2009-06-15 07:05:12 51°16.969 2°44.462 16.0461 4.198297 33.077533 14.844376
2009-06-15 07:05:17 51°16.979 2°44.441 16.0479 4.197882 33.078632 14.948848
2009-06-15 07:05:22 51°16.989 2°44.42 16.0405 4.197674 33.080201 14.948848
2009-06-15 07:05:26 51°16.998 2°44.403 16.0405 4.197674 33.080201 14.948848
2009-06-15 07:05:32 51°17.01 2°44.378 16.0315 4.197156 33.080388 14.914024
2009-06-15 07:05:37 51°17.019 2°44.357 16.0292 4.196844 33.079685 14.948848
2009-06-15 07:05:42 51°17.029 2°44.336 16.0271 4.196533 33.079662 14.948848
2009-06-15 07:05:47 51°17.038 2°44.314 16.0264 4.196014 33.07917 15.053321
2009-06-15 07:05:52 51°17.048 2°44.293 16.0248 4.1956 33.078912 15.122969
2009-06-15 07:05:57 51°17.057 2°44.271 16.0201 4.195081 33.077741 15.088145
2009-06-15 07:06:02 51°17.066 2°44.249 16.016 4.195081 33.077741 15.088145
2009-06-15 07:06:06 51°17.073 2°44.232 16.0128 4.194355 33.074742 15.088145
2009-06-15 07:06:12 51°17.084 2°44.206 16.0094 4.193836 33.07357 15.088145
2009-06-15 07:06:17 51°17.093 2°44.184 16.0062 4.193421 33.073312 14.983672
2009-06-15 07:06:22 51°17.103 2°44.162 16.004 4.192798 33.069867 15.018497
2009-06-15 07:06:27 51°17.111 2°44.14 16.0021 4.192798 33.069867 15.018497
2009-06-15 07:06:32 51°17.12 2°44.117 15.9973 4.19228 33.068016 15.053321
2009-06-15 07:06:37 51°17.129 2°44.096 15.9974 4.191761 33.066844 15.053321
2009-06-15 07:06:42 51°17.137 2°44.073 15.9929 4.19145 33.0675 15.157793
2009-06-15 07:06:47 51°17.146 2°44.051 15.9901 4.190723 33.06314 15.157793
2009-06-15 07:06:52 51°17.155 2°44.029 15.9905 4.189997 33.060138 15.227441
2009-06-15 07:06:57 51°17.164 2°44.006 15.9887 4.189997 33.060138 15.227441
2009-06-15 07:07:02 51°17.173 2°43.984 15.9867 4.189582 33.057841 15.157793
2009-06-15 07:07:07 51°17.182 2°43.962 15.9846 4.188856 33.054839 15.088145
2009-06-15 07:07:12 51°17.191 2°43.94 15.9804 4.188234 33.050712 15.088145
2009-06-15 07:07:17 51°17.199 2°43.918 15.9846 4.187507 33.04635 15.088145
2009-06-15 07:07:22 51°17.208 2°43.896 15.9768 4.186781 33.044027 15.157793
2009-06-15 07:07:27 51°17.217 2°43.873 15.9811 4.186055 33.039665 15.122969
2009-06-15 07:07:32 51°17.226 2°43.851 15.9776 4.186055 33.039665 15.122969
2009-06-15 07:07:37 51°17.234 2°43.829 15.9774 4.185536 33.036451 15.157793
2009-06-15 07:07:42 51°17.244 2°43.807 15.9756 4.185225 33.035067 15.053321
2009-06-15 07:07:46 51°17.251 2°43.789 15.9724 4.184706 33.033212 15.088145
2009-06-15 07:07:52 51°17.262 2°43.762 15.9692 4.184084 33.029763 15.157793
2009-06-15 07:07:57 51°17.271 2°43.74 15.9687 4.184084 33.029763 15.157793
2009-06-15 07:08:02 51°17.28 2°43.718 15.9701 4.183461 33.025634 15.018497
2009-06-15 07:08:07 51°17.289 2°43.695 15.9687 4.182942 33.021741 14.983672
2009-06-15 07:08:12 51°17.298 2°43.673 15.9673 4.182424 33.017847 15.122969
2009-06-15 07:08:17 51°17.307 2°43.651 15.9677 4.181801 33.014397 15.088145
2009-06-15 07:08:22 51°17.316 2°43.629 15.9671 4.181179 33.010947 15.122969
2009-06-15 07:08:27 51°17.325 2°43.607 15.9662 4.181179 33.010947 15.122969
2009-06-15 07:08:32 51°17.334 2°43.584 15.968 4.180556 33.007496 15.053321
2009-06-15 07:08:37 51°17.343 2°43.562 15.9676 4.180453 33.006581 15.053321
2009-06-15 07:08:42 51°17.352 2°43.54 15.9696 4.179726 33.001537 15.122969
2009-06-15 07:08:47 51°17.36 2°43.517 15.9661 4.179104 32.997406 14.983672
2009-06-15 07:08:52 51°17.369 2°43.495 15.9646 4.178585 32.993512 15.018497
2009-06-15 07:08:57 51°17.378 2°43.473 15.9642 4.178585 32.993512 15.018497
2009-06-15 07:09:02 51°17.387 2°43.451 15.9626 4.17817 32.989853 15.088145
2009-06-15 07:09:07 51°17.396 2°43.428 15.9624 4.17817 32.989853 15.053321
2009-06-15 07:09:12 51°17.405 2°43.406 15.9604 4.177859 32.987108 15.053321
2009-06-15 07:09:17 51°17.414 2°43.384 15.9608 4.177859 32.987108 15.122969
2009-06-15 07:09:22 51°17.422 2°43.362 15.9603 4.177548 32.985043 15.157793
2009-06-15 07:09:27 51°17.431 2°43.339 15.9596 4.177548 32.985043 15.157793
2009-06-15 07:09:32 51°17.44 2°43.317 15.9607 4.177236 32.983657 15.122969
2009-06-15 07:09:37 51°17.449 2°43.295 15.9589 4.177029 32.982506 15.122969
2009-06-15 07:09:42 51°17.458 2°43.273 15.9568 4.176925 32.98227 15.122969
2009-06-15 07:09:47 51°17.466 2°43.251 15.9569 4.17651 32.979969 14.983672
2009-06-15 07:09:52 51°17.475 2°43.229 15.9572 4.176406 32.979733 14.948848
2009-06-15 07:09:57 51°17.483 2°43.206 15.9561 4.176406 32.979733 14.948848
2009-06-15 07:10:02 51°17.492 2°43.184 15.9539 4.176303 32.978139 14.948848
2009-06-15 07:10:07 51°17.5 2°43.161 15.9511 4.176199 32.977903 14.983672
2009-06-15 07:10:12 51°17.509 2°43.139 15.9496 4.176199 32.978582 15.018497
2009-06-15 07:10:17 51°17.517 2°43.116 15.9504 4.176199 32.979261 14.948848
2009-06-15 07:10:22 51°17.526 2°43.094 15.9487 4.176199 32.980619 14.948848
2009-06-15 07:10:26 51°17.533 2°43.076 15.9479 4.176199 32.980619 14.948848
2009-06-15 07:10:32 51°17.543 2°43.049 15.9474 4.176303 32.982213 14.983672
2009-06-15 07:10:37 51°17.552 2°43.027 15.9474 4.176406 32.985166 15.018497
2009-06-15 07:10:42 51°17.56 2°43.005 15.9483 4.176406 32.986524 14.948848
2009-06-15 07:10:47 51°17.569 2°42.983 15.9465 4.176821 32.990864 14.948848
2009-06-15 07:10:52 51°17.578 2°42.961 15.946 4.177029 32.994053 14.8792
2009-06-15 07:10:57 51°17.587 2°42.939 15.948 4.17734 32.997478 14.983672
2009-06-15 07:11:02 51°17.597 2°42.917 15.945 4.17734 32.997478 14.983672
2009-06-15 07:11:07 51°17.605 2°42.895 15.9435 4.177859 33.002733 14.914024
2009-06-15 07:11:12 51°17.615 2°42.873 15.9464 4.178482 33.008225 14.844376
2009-06-15 07:11:17 51°17.624 2°42.851 15.9455 4.179 33.012801 14.8792
2009-06-15 07:11:22 51°17.633 2°42.829 15.9493 4.179727 33.019888 14.914024
2009-06-15 07:11:27 51°17.642 2°42.807 15.9507 4.180349 33.02674 14.809552
2009-06-15 07:11:32 51°17.652 2°42.785 15.9525 4.180349 33.02674 14.809552
2009-06-15 07:11:37 51°17.661 2°42.763 15.9553 4.180972 33.031552 14.809552
2009-06-15 07:11:42 51°17.67 2°42.741 15.9557 4.18066 33.028806 14.948848
2009-06-15 07:11:47 51°17.679 2°42.719 15.9592 4.181905 33.03911 14.8792
2009-06-15 07:11:52 51°17.688 2°42.697 15.9607 4.182632 33.044837 14.948848
2009-06-15 07:11:57 51°17.698 2°42.675 15.9615 4.182632 33.044837 14.948848
2009-06-15 07:12:02 51°17.707 2°42.653 15.9645 4.183565 33.052395 14.914024
2009-06-15 07:12:07 51°17.717 2°42.631 15.966 4.184707 33.061102 14.948848
2009-06-15 07:12:12 51°17.727 2°42.609 15.966 4.186159 33.072556 14.914024
2009-06-15 07:12:17 51°17.737 2°42.587 15.9673 4.187612 33.08401 15.018497
2009-06-15 07:12:22 51°17.747 2°42.565 15.9687 4.189583 33.100041 15.122969
2009-06-15 07:12:26 51°17.755 2°42.547 15.9688 4.189583 33.100041 15.122969
2009-06-15 07:12:32 51°17.767 2°42.521 15.9727 4.190932 33.109215 15.122969
2009-06-15 07:12:37 51°17.777 2°42.499 15.9723 4.191865 33.115409 15.053321
2009-06-15 07:12:42 51°17.787 2°42.477 15.9748 4.191139 33.107638 15.088145
2009-06-15 07:12:47 51°17.796 2°42.455 15.9743 4.193941 33.131672 15.157793
2009-06-15 07:12:52 51°17.806 2°42.433 15.9749 4.194563 33.1358 15.122969
2009-06-15 07:12:57 51°17.816 2°42.411 15.9757 4.194563 33.1358 15.122969
2009-06-15 07:13:02 51°17.825 2°42.389 15.9783 4.196223 33.150448 15.088145
2009-06-15 07:13:07 51°17.834 2°42.367 15.9764 4.196534 33.151147 15.088145
2009-06-15 07:13:12 51°17.844 2°42.346 15.9756 4.198194 33.164429 15.088145
2009-06-15 07:13:17 51°17.854 2°42.324 15.9763 4.199232 33.171536 15.122969
2009-06-15 07:13:22 51°17.863 2°42.302 15.9735 4.200062 33.178859 15.157793
2009-06-15 07:13:27 51°17.872 2°42.28 15.9708 4.200062 33.178859 15.157793
2009-06-15 07:13:32 51°17.881 2°42.258 15.9701 4.201618 33.191226 14.914024
2009-06-15 07:13:37 51°17.89 2°42.236 15.969 4.20276 33.200614 15.053321
2009-06-15 07:13:42 51°17.899 2°42.214 15.9644 4.204005 33.2116 15.122969
2009-06-15 07:13:47 51°17.908 2°42.192 15.9628 4.205354 33.223503 15.088145
2009-06-15 07:13:52 51°17.917 2°42.17 15.9564 4.206287 33.231744 14.914024
2009-06-15 07:13:57 51°17.926 2°42.148 15.9511 4.206287 33.231744 14.914024
2009-06-15 07:14:02 51°17.934 2°42.126 15.9482 4.20774 33.245933 15.053321
2009-06-15 07:14:07 51°17.943 2°42.104 15.9413 4.208778 33.255775 15.053321
2009-06-15 07:14:12 51°17.952 2°42.082 15.9364 4.209296 33.261723 15.018497
2009-06-15 07:14:17 51°17.961 2°42.06 15.9309 4.210542 33.274769 14.983672
2009-06-15 07:14:22 51°17.97 2°42.038 15.929 4.211475 33.28644 14.983672
2009-06-15 07:14:26 51°17.977 2°42.02 15.9196 4.212202 33.296966 14.739904
2009-06-15 07:14:32 51°17.987 2°41.994 15.916 4.212202 33.296966 14.739904
2009-06-15 07:14:37 51°17.996 2°41.972 15.9069 4.212513 33.30383 14.774728
2009-06-15 07:14:42 51°18.005 2°41.95 15.9032 4.212825 33.312068 14.809552
2009-06-15 07:14:46 51°18.012 2°41.933 15.8972 4.213032 33.318019 14.565784
2009-06-15 07:14:52 51°18.024 2°41.907 15.8918 4.213032 33.322138 14.739904
2009-06-15 07:14:57 51°18.033 2°41.885 15.8904 4.213136 33.328549 14.635432
2009-06-15 07:15:02 51°18.042 2°41.864 15.8803 4.213136 33.328549 14.635432
2009-06-15 07:15:06 51°18.05 2°41.846 15.8785 4.213032 33.333815 14.600608
2009-06-15 07:15:12 51°18.061 2°41.82 15.8757 4.212825 33.337479 14.461312
2009-06-15 07:15:17 51°18.07 2°41.799 15.8698 4.212721 33.341374 14.391664
2009-06-15 07:15:22 51°18.079 2°41.777 15.869 4.212306 33.342517 14.322015
2009-06-15 07:15:26 51°18.087 2°41.759 15.8657 4.212306 33.342517 14.322015
2009-06-15 07:15:32 51°18.098 2°41.733 15.8589 4.211995 33.347331 14.322015
2009-06-15 07:15:37 51°18.107 2°41.711 15.862 4.211476 33.348246 14.356839
2009-06-15 07:15:42 51°18.115 2°41.689 15.8559 4.211165 33.349622 14.322015
2009-06-15 07:15:46 51°18.123 2°41.671 15.8513 4.210647 33.349161 14.252367
2009-06-15 07:15:52 51°18.134 2°41.645 15.8507 4.210335 33.350538 14.217543
2009-06-15 07:15:57 51°18.143 2°41.623 15.8471 4.20992 33.350307 14.217543
2009-06-15 07:16:02 51°18.153 2°41.602 15.8463 4.20992 33.350307 14.217543
2009-06-15 07:16:07 51°18.162 2°41.581 15.8428 4.209505 33.350077 14.217543
2009-06-15 07:16:12 51°18.172 2°41.56 15.8407 4.208987 33.347551 14.217543
2009-06-15 07:16:17 51°18.182 2°41.539 15.8416 4.208883 33.350077 14.217543
2009-06-15 07:16:22 51°18.192 2°41.519 15.8335 4.208468 33.349158 14.252367
2009-06-15 07:16:27 51°18.202 2°41.498 15.8352 4.20826 33.350076 14.217543
2009-06-15 07:16:32 51°18.213 2°41.477 15.8336 4.20826 33.350076 14.217543
2009-06-15 07:16:37 51°18.223 2°41.456 15.8294 4.207949 33.349387 14.147895
2009-06-15 07:16:42 51°18.234 2°41.437 15.8317 4.207638 33.349387 14.078247
2009-06-15 07:16:47 51°18.245 2°41.417 15.8319 4.20743 33.349617 14.078247
2009-06-15 07:16:52 51°18.255 2°41.397 15.8281 4.207223 33.350535 14.113071
2009-06-15 07:16:57 51°18.267 2°41.377 15.829 4.207223 33.350535 14.113071
2009-06-15 07:17:02 51°18.278 2°41.358 15.8297 4.206912 33.349846 14.043423
2009-06-15 07:17:07 51°18.29 2°41.339 15.8286 4.206808 33.350995 14.078247
2009-06-15 07:17:12 51°18.301 2°41.32 15.8298 4.206704 33.350766 14.008599
2009-06-15 07:17:17 51°18.313 2°41.301 15.8338 4.206497 33.349617 14.008599
2009-06-15 07:17:22 51°18.324 2°41.282 15.8306 4.206393 33.350077 13.938951
2009-06-15 07:17:27 51°18.336 2°41.263 15.8322 4.206393 33.350077 13.938951
2009-06-15 07:17:32 51°18.348 2°41.244 15.8302 4.206289 33.350536 13.938951
2009-06-15 07:17:37 51°18.36 2°41.226 15.829 4.206186 33.350307 13.938951
2009-06-15 07:17:42 51°18.371 2°41.207 15.8282 4.206082 33.349387 14.008599
2009-06-15 07:17:47 51°18.383 2°41.188 15.8291 4.205978 33.348468 13.973775
2009-06-15 07:17:52 51°18.395 2°41.17 15.8299 4.205978 33.347779 13.904127
2009-06-15 07:17:57 51°18.407 2°41.151 15.8261 4.205978 33.347779 14.008599
2009-06-15 07:18:02 51°18.419 2°41.133 15.8294 4.205978 33.347779 14.008599
2009-06-15 07:18:07 51°18.431 2°41.114 15.8304 4.206082 33.348009 14.008599
2009-06-15 07:18:12 51°18.442 2°41.095 15.8285 4.205978 33.349158 13.973775
2009-06-15 07:18:17 51°18.454 2°41.077 15.8326 4.206082 33.350766 14.078247
2009-06-15 07:18:22 51°18.465 2°41.058 15.8311 4.206082 33.350766 14.008599
2009-06-15 07:18:27 51°18.477 2°41.039 15.831 4.206289 33.351915 13.904127
2009-06-15 07:18:32 51°18.488 2°41.02 15.8306 4.206289 33.351915 13.904127
2009-06-15 07:18:37 51°18.5 2°41.001 15.8299 4.206393 33.353523 13.938951
2009-06-15 07:18:42 51°18.511 2°40.982 15.8315 4.206601 33.355362 13.904127
2009-06-15 07:18:47 51°18.523 2°40.963 15.8331 4.206808 33.3572 14.043423
2009-06-15 07:18:52 51°18.534 2°40.945 15.8324 4.207016 33.357659 14.043423
2009-06-15 07:18:57 51°18.545 2°40.925 15.831 4.207016 33.357659 14.043423
2009-06-15 07:19:02 51°18.556 2°40.906 15.8332 4.207223 33.359497 13.869303
2009-06-15 07:19:06 51°18.565 2°40.89 15.832 4.207327 33.361106 13.904127
2009-06-15 07:19:12 51°18.578 2°40.867 15.829 4.207638 33.363863 13.834479
2009-06-15 07:19:17 51°18.589 2°40.848 15.8307 4.207742 33.364092 13.869303
2009-06-15 07:19:22 51°18.6 2°40.828 15.8302 4.207949 33.364551 13.973775
2009-06-15 07:19:27 51°18.611 2°40.808 15.8285 4.207949 33.364551 13.973775
2009-06-15 07:19:32 51°18.622 2°40.788 15.8295 4.208261 33.367308 13.938951
2009-06-15 07:19:37 51°18.633 2°40.769 15.829 4.208572 33.370066 13.904127
2009-06-15 07:19:42 51°18.644 2°40.749 15.8283 4.208572 33.371445 13.904127
2009-06-15 07:19:46 51°18.653 2°40.734 15.8273 4.20878 33.373283 13.869303
2009-06-15 07:19:52 51°18.667 2°40.71 15.8248 4.208883 33.374203 13.834479
2009-06-15 07:19:57 51°18.678 2°40.691 15.8248 4.208987 33.375812 13.869303
2009-06-15 07:20:02 51°18.689 2°40.671 15.8243 4.208987 33.375812 13.869303
2009-06-15 07:20:06 51°18.698 2°40.656 15.8227 4.208987 33.376502 13.904127
2009-06-15 07:20:12 51°18.711 2°40.632 15.827 4.209091 33.378111 13.973775
2009-06-15 07:20:17 51°18.722 2°40.613 15.8257 4.209195 33.37834 13.973775
2009-06-15 07:20:22 51°18.733 2°40.593 15.8255 4.209195 33.37972 13.938951
2009-06-15 07:20:26 51°18.741 2°40.578 15.8229 4.209298 33.382019 13.869303
2009-06-15 07:20:32 51°18.755 2°40.556 15.826 4.209298 33.382019 13.869303
2009-06-15 07:20:37 51°18.766 2°40.537 15.8253 4.209506 33.383168 13.869303
2009-06-15 07:20:42 51°18.777 2°40.517 15.8234 4.209817 33.387306 13.834479
2009-06-15 07:20:47 51°18.788 2°40.498 15.8271 4.210025 33.389145 13.869303
2009-06-15 07:20:52 51°18.798 2°40.478 15.8276 4.210336 33.391903 13.799655
2009-06-15 07:20:57 51°18.809 2°40.458 15.8256 4.210336 33.391903 13.799655
2009-06-15 07:21:02 51°18.819 2°40.438 15.8226 4.210647 33.394661 13.799655
2009-06-15 07:21:07 51°18.829 2°40.417 15.8237 4.210751 33.39627 13.799655
2009-06-15 07:21:12 51°18.839 2°40.397 15.8284 4.211166 33.399948 13.764831
2009-06-15 07:21:17 51°18.85 2°40.377 15.8282 4.211477 33.402015 13.834479
2009-06-15 07:21:22 51°18.86 2°40.356 15.8298 4.211892 33.405002 13.730007
2009-06-15 07:21:26 51°18.869 2°40.34 15.8306 4.211892 33.405002 13.730007
2009-06-15 07:21:32 51°18.881 2°40.315 15.8306 4.212204 33.40776 13.660358
2009-06-15 07:21:37 51°18.891 2°40.295 15.8326 4.212826 33.414658 13.730007
2009-06-15 07:21:42 51°18.902 2°40.274 15.8367 4.213449 33.419484 13.764831
2009-06-15 07:21:46 51°18.91 2°40.258 15.8383 4.213864 33.42178 13.730007
2009-06-15 07:21:52 51°18.921 2°40.232 15.843 4.214383 33.424995 13.660358
2009-06-15 07:21:57 51°18.931 2°40.211 15.8457 4.214798 33.428673 13.486238
2009-06-15 07:22:02 51°18.941 2°40.188 15.8495 4.214798 33.428673 13.486238
2009-06-15 07:22:07 51°18.95 2°40.167 15.8518 4.215109 33.43074 13.486238
2009-06-15 07:22:12 51°18.959 2°40.145 15.8565 4.215628 33.433955 13.451414
2009-06-15 07:22:17 51°18.967 2°40.122 15.8586 4.216146 33.436478 13.24247
2009-06-15 07:22:22 51°18.977 2°40.1 15.8591 4.216665 33.439001 13.172822
2009-06-15 07:22:27 51°18.985 2°40.077 15.8616 4.216665 33.439001 13.172822
2009-06-15 07:22:32 51°18.995 2°40.055 15.865 4.217391 33.442672 13.137998
2009-06-15 07:22:37 51°19.003 2°40.033 15.8676 4.218014 33.445423 12.998701
2009-06-15 07:22:42 51°19.012 2°40.01 15.8702 4.218636 33.447482 12.929053
2009-06-15 07:22:47 51°19.021 2°39.988 15.8729 4.219259 33.449542 12.963877
2009-06-15 07:22:52 51°19.029 2°39.965 15.8754 4.219881 33.452983 12.859405
2009-06-15 07:22:57 51°19.037 2°39.942 15.8778 4.219881 33.452983 12.859405
2009-06-15 07:23:02 51°19.045 2°39.919 15.8793 4.220608 33.456651 12.824581
2009-06-15 07:23:07 51°19.053 2°39.896 15.8827 4.221334 33.461011 12.789757
2009-06-15 07:23:12 51°19.061 2°39.872 15.8838 4.22206 33.463988 12.685285
2009-06-15 07:23:17 51°19.068 2°39.849 15.8849 4.22289 33.469265 12.754933
2009-06-15 07:23:22 51°19.076 2°39.826 15.886 4.223409 33.471786 12.720109
2009-06-15 07:23:27 51°19.084 2°39.802 15.887 4.224239 33.476372 12.754933
2009-06-15 07:23:32 51°19.092 2°39.779 15.8867 4.224239 33.476372 12.754933
2009-06-15 07:23:37 51°19.1 2°39.756 15.8877 4.224862 33.479811 12.650461
2009-06-15 07:23:42 51°19.108 2°39.732 15.8875 4.225588 33.484168 12.580813
2009-06-15 07:23:47 51°19.116 2°39.709 15.8868 4.226626 33.491281 12.685285
2009-06-15 07:23:52 51°19.124 2°39.686 15.8853 4.227248 33.494027 12.580813
2009-06-15 07:23:57 51°19.132 2°39.662 15.8856 4.228182 33.500221 12.615637
2009-06-15 07:24:02 51°19.14 2°39.639 15.8842 4.228182 33.500221 12.615637
2009-06-15 07:24:07 51°19.148 2°39.616 15.8832 4.228805 33.505041 12.615637
2009-06-15 07:24:12 51°19.156 2°39.593 15.8836 4.22922 33.508716 12.615637
2009-06-15 07:24:17 51°19.164 2°39.569 15.8832 4.229531 33.511472 12.685285
2009-06-15 07:24:22 51°19.172 2°39.546 15.8831 4.229946 33.515146 12.685285
2009-06-15 07:24:27 51°19.18 2°39.522 15.8817 4.229946 33.515146 12.685285
2009-06-15 07:24:32 51°19.188 2°39.499 15.8808 4.230257 33.518594 12.685285
2009-06-15 07:24:37 51°19.196 2°39.476 15.881 4.23088 33.524106 12.720109
2009-06-15 07:24:42 51°19.204 2°39.452 15.8806 4.231295 33.528473 12.754933
2009-06-15 07:24:47 51°19.213 2°39.429 15.8783 4.231606 33.532614 12.754933
2009-06-15 07:24:52 51°19.221 2°39.406 15.8771 4.232125 33.537208 12.720109
2009-06-15 07:24:57 51°19.229 2°39.383 15.8742 4.232748 33.543413 12.685285
2009-06-15 07:25:02 51°19.237 2°39.36 15.8736 4.232748 33.543413 12.685285
2009-06-15 07:25:07 51°19.245 2°39.337 15.8695 4.233163 33.547781 12.615637
2009-06-15 07:25:12 51°19.254 2°39.314 15.8663 4.233681 33.553068 12.720109
2009-06-15 07:25:17 51°19.262 2°39.291 15.8655 4.234097 33.557437 12.685285
2009-06-15 07:25:22 51°19.27 2°39.267 15.864 4.234615 33.563418 12.685285
2009-06-15 07:25:27 51°19.279 2°39.244 15.8576 4.234927 33.566868 12.685285
2009-06-15 07:25:32 51°19.287 2°39.221 15.8555 4.234927 33.566868 12.685285
2009-06-15 07:25:37 51°19.295 2°39.198 15.8523 4.235134 33.570785 12.720109
2009-06-15 07:25:42 51°19.304 2°39.175 15.8513 4.235549 33.576542 12.720109
2009-06-15 07:25:47 51°19.313 2°39.152 15.8477 4.235861 33.582073 12.615637
2009-06-15 07:25:52 51°19.321 2°39.129 15.8427 4.23638 33.58875 12.650461
2009-06-15 07:25:57 51°19.33 2°39.105 15.8412 4.23638 33.58875 12.650461
2009-06-15 07:26:02 51°19.338 2°39.082 15.8397 4.236795 33.595203 12.615637
2009-06-15 07:26:06 51°19.345 2°39.064 15.8351 4.237417 33.60419 12.615637
2009-06-15 07:26:12 51°19.356 2°39.036 15.8314 4.237832 33.610646 12.650461
2009-06-15 07:26:17 51°19.364 2°39.013 15.8303 4.238144 33.616183 12.580813
2009-06-15 07:26:22 51°19.373 2°38.99 15.8282 4.238455 33.621026 12.580813
2009-06-15 07:26:27 51°19.382 2°38.967 15.8265 4.238455 33.621026 12.580813
2009-06-15 07:26:32 51°19.39 2°38.944 15.8218 4.238663 33.62634 12.650461
2009-06-15 07:26:37 51°19.398 2°38.92 15.8192 4.238663 33.629815 12.580813
2009-06-15 07:26:42 51°19.407 2°38.897 15.8201 4.23887 33.633045 12.650461
2009-06-15 07:26:47 51°19.415 2°38.874 15.8192 4.239078 33.639057 12.685285
2009-06-15 07:26:52 51°19.423 2°38.85 15.8168 4.239285 33.642984 12.615637
2009-06-15 07:26:57 51°19.431 2°38.827 15.817 4.239493 33.647607 12.650461
2009-06-15 07:27:02 51°19.44 2°38.804 15.8132 4.239493 33.647607 12.650461
2009-06-15 07:27:07 51°19.448 2°38.78 15.8111 4.239701 33.652231 12.580813
2009-06-15 07:27:12 51°19.456 2°38.757 15.8132 4.239804 33.655935 12.580813
2009-06-15 07:27:17 51°19.464 2°38.733 15.8105 4.239804 33.658023 12.650461
2009-06-15 07:27:22 51°19.472 2°38.709 15.809 4.240012 33.661257 12.580813
2009-06-15 07:27:26 51°19.478 2°38.69 15.8092 4.240116 33.66357 12.615637
2009-06-15 07:27:32 51°19.488 2°38.662 15.8061 4.240116 33.66357 12.615637
2009-06-15 07:27:37 51°19.497 2°38.638 15.8068 4.24022 33.665883 12.650461
2009-06-15 07:27:42 51°19.505 2°38.615 15.8061 4.239389 33.660606 12.580813
2009-06-15 07:27:46 51°19.512 2°38.596 15.8061 4.240635 33.672352 12.615637
2009-06-15 07:27:52 51°19.522 2°38.568 15.8043 4.240738 33.674666 12.580813
2009-06-15 07:27:57 51°19.531 2°38.544 15.8043 4.240738 33.674666 12.580813
2009-06-15 07:28:02 51°19.54 2°38.521 15.805 4.240842 33.67698 12.615637
2009-06-15 07:28:07 51°19.548 2°38.497 15.8056 4.240946 33.679992 12.580813
2009-06-15 07:28:12 51°19.556 2°38.473 15.8049 4.241154 33.68253 12.685285
2009-06-15 07:28:17 51°19.564 2°38.449 15.8054 4.241257 33.683451 12.615637
2009-06-15 07:28:22 51°19.573 2°38.425 15.8054 4.241257 33.684845 12.685285
2009-06-15 07:28:27 51°19.581 2°38.401 15.805 4.241257 33.686239 12.754933
2009-06-15 07:28:32 51°19.589 2°38.377 15.8049 4.241257 33.686239 12.754933
2009-06-15 07:28:37 51°19.597 2°38.353 15.8064 4.241465 33.687384 12.580813
2009-06-15 07:28:42 51°19.605 2°38.329 15.8062 4.241465 33.687384 12.720109
2009-06-15 07:28:47 51°19.613 2°38.305 15.8063 4.241465 33.688082 12.650461
2009-06-15 07:28:52 51°19.621 2°38.281 15.8079 4.241569 33.689003 12.685285
2009-06-15 07:28:57 51°19.63 2°38.257 15.8076 4.241776 33.690148 12.650461
2009-06-15 07:29:02 51°19.638 2°38.233 15.8088 4.241776 33.690148 12.650461
2009-06-15 07:29:07 51°19.646 2°38.209 15.807 4.24188 33.691069 12.720109
2009-06-15 07:29:12 51°19.655 2°38.185 15.8059 4.24188 33.691069 12.720109
2009-06-15 07:29:17 51°19.663 2°38.162 15.8089 4.24188 33.691069 12.615637
2009-06-15 07:29:22 51°19.671 2°38.138 15.8073 4.24188 33.690372 12.615637
2009-06-15 07:29:27 51°19.68 2°38.114 15.8095 4.241984 33.690596 12.580813
2009-06-15 07:29:32 51°19.688 2°38.09 15.8087 4.241984 33.690596 12.580813
2009-06-15 07:29:37 51°19.697 2°38.066 15.8071 4.24188 33.689675 12.615637
2009-06-15 07:29:42 51°19.705 2°38.042 15.8068 4.242087 33.691517 12.615637
2009-06-15 07:29:47 51°19.713 2°38.018 15.8061 4.242087 33.691517 12.580813
2009-06-15 07:29:52 51°19.721 2°37.993 15.8055 4.242191 33.692438 12.650461
2009-06-15 07:29:57 51°19.729 2°37.969 15.8068 4.242191 33.692438 12.650461
2009-06-15 07:30:02 51°19.737 2°37.945 15.8087 4.242399 33.693583 12.580813
2009-06-15 07:30:07 51°19.744 2°37.921 15.8072 4.242295 33.692662 12.650461
2009-06-15 07:30:12 51°19.752 2°37.897 15.8049 4.242399 33.69428 12.580813
2009-06-15 07:30:17 51°19.76 2°37.873 15.802 4.242503 33.695201 12.545989
2009-06-15 07:30:22 51°19.768 2°37.85 15.7988 4.242606 33.696122 12.615637
2009-06-15 07:30:27 51°19.776 2°37.826 15.7909 4.242606 33.696122 12.545989
2009-06-15 07:30:32 51°19.784 2°37.802 15.7892 4.242606 33.696122 12.545989
2009-06-15 07:30:37 51°19.792 2°37.778 15.781 4.242503 33.695898 12.545989
2009-06-15 07:30:42 51°19.8 2°37.755 15.7794 4.242503 33.695898 12.511165
2009-06-15 07:30:47 51°19.808 2°37.731 15.771 4.242606 33.698214 12.371868
2009-06-15 07:30:52 51°19.815 2°37.707 15.7649 4.242814 33.701451 12.267396
2009-06-15 07:30:57 51°19.823 2°37.684 15.7625 4.243125 33.707702 12.30222
2009-06-15 07:31:02 51°19.831 2°37.661 15.7534 4.243125 33.707702 12.30222
2009-06-15 07:31:07 51°19.838 2°37.639 15.7514 4.24354 33.714876 12.267396
2009-06-15 07:31:12 51°19.844 2°37.618 15.7431 4.243955 33.72275 12.267396
2009-06-15 07:31:17 51°19.851 2°37.597 15.7349 4.244371 33.731324 12.232572
2009-06-15 07:31:22 51°19.857 2°37.578 15.7289 4.24489 33.741522 12.162924
2009-06-15 07:31:27 51°19.863 2°37.559 15.725 4.24489 33.741522 12.162924
2009-06-15 07:31:32 51°19.87 2°37.54 15.7147 4.245305 33.750801 12.162924
2009-06-15 07:31:37 51°19.876 2°37.522 15.7087 4.24572 33.758685 12.058452
2009-06-15 07:31:42 51°19.881 2°37.505 15.7024 4.246135 33.76797 11.95398
2009-06-15 07:31:47 51°19.887 2°37.489 15.7065 4.246654 33.779582 11.919156
2009-06-15 07:31:52 51°19.892 2°37.475 15.6944 4.247069 33.789575 11.849508
2009-06-15 07:31:57 51°19.897 2°37.461 15.6855 4.247069 33.789575 11.849508
2009-06-15 07:32:02 51°19.902 2°37.448 15.682 4.247484 33.800273 11.849508
2009-06-15 07:32:07 51°19.906 2°37.436 15.6756 4.247899 33.808872 11.814684
2009-06-15 07:32:12 51°19.91 2°37.424 15.6779 4.248107 33.817031 11.814684
2009-06-15 07:32:17 51°19.914 2°37.412 15.6697 4.248418 33.828222 11.814684
2009-06-15 07:32:22 51°19.918 2°37.401 15.6683 4.248522 33.83406 11.77986
2009-06-15 07:32:27 51°19.921 2°37.391 15.6638 4.248937 33.842671 11.605739
2009-06-15 07:32:32 51°19.924 2°37.381 15.6613 4.248937 33.842671 11.605739
2009-06-15 07:32:37 51°19.927 2°37.371 15.6632 4.249145 33.85014 11.640563
2009-06-15 07:32:42 51°19.93 2°37.361 15.6591 4.249353 33.857612 11.605739
2009-06-15 07:32:47 51°19.932 2°37.352 15.6577 4.249353 33.860424 11.570915
2009-06-15 07:32:52 51°19.935 2°37.343 15.6549 4.24956 33.866493 11.536091
2009-06-15 07:32:57 51°19.937 2°37.334 15.6537 4.249664 33.870935 11.501267
2009-06-15 07:33:02 51°19.938 2°37.326 15.6517 4.249664 33.870935 11.501267
2009-06-15 07:33:07 51°19.94 2°37.317 15.6509 4.249768 33.875378 11.431619
2009-06-15 07:33:12 51°19.942 2°37.309 15.6507 4.249768 33.878193 11.466443
2009-06-15 07:33:17 51°19.944 2°37.301 15.6493 4.249664 33.879381 11.466443
2009-06-15 07:33:22 51°19.945 2°37.293 15.6467 4.249768 33.882417 11.466443
2009-06-15 07:33:27 51°19.947 2°37.286 15.6414 4.249768 33.882417 11.466443
2009-06-15 07:33:32 51°19.948 2°37.278 15.6421 4.249768 33.88453 11.361971
2009-06-15 07:33:37 51°19.949 2°37.271 15.6391 4.249872 33.887568 11.327147
2009-06-15 07:33:42 51°19.951 2°37.264 15.6378 4.249872 33.889681 11.396795
2009-06-15 07:33:47 51°19.952 2°37.257 15.6368 4.249872 33.89109 11.257499
2009-06-15 07:33:52 51°19.953 2°37.249 15.6345 4.249976 33.893424 11.292323
2009-06-15 07:33:57 51°19.955 2°37.242 15.635 4.249976 33.894833 11.292323
2009-06-15 07:34:02 51°19.956 2°37.236 15.6349 4.249976 33.894833 11.292323
2009-06-15 07:34:07 51°19.957 2°37.229 15.6367 4.25008 33.897872 11.222675
2009-06-15 07:34:12 51°19.958 2°37.222 15.6335 4.250183 33.900912 11.118203
2009-06-15 07:34:17 51°19.96 2°37.215 15.6305 4.25008 33.901396 11.118203
2009-06-15 07:34:22 51°19.961 2°37.209 15.6316 4.250183 33.903731 10.978906
2009-06-15 07:34:27 51°19.962 2°37.202 15.6298 4.250184 33.905846 10.978906
2009-06-15 07:34:32 51°19.964 2°37.196 15.629 4.250184 33.905846 10.978906
2009-06-15 07:34:37 51°19.965 2°37.189 15.6309 4.25008 33.905626 10.944082
2009-06-15 07:34:42 51°19.967 2°37.182 15.6269 4.25008 33.905626 10.944082
2009-06-15 07:34:47 51°19.968 2°37.175 15.6266 4.250184 33.907257 10.978906
2009-06-15 07:34:52 51°19.97 2°37.168 15.6261 4.250184 33.907962 10.874434
2009-06-15 07:34:57 51°19.972 2°37.161 15.625 4.250287 33.909593 10.874434
2009-06-15 07:35:02 51°19.974 2°37.153 15.6255 4.250287 33.909593 10.874434
2009-06-15 07:35:07 51°19.976 2°37.146 15.6282 4.249976 33.906816 10.83961
2009-06-15 07:35:12 51°19.977 2°37.138 15.6249 4.250287 33.911708 10.769962
2009-06-15 07:35:17 51°19.979 2°37.13 15.6233 4.250287 33.911708 10.735138
2009-06-15 07:35:22 51°19.981 2°37.122 15.6249 4.250287 33.913119 10.735138
2009-06-15 07:35:27 51°19.983 2°37.115 15.6212 4.250287 33.913119 10.735138
2009-06-15 07:35:32 51°19.985 2°37.107 15.6256 4.250184 33.913604 10.700314
2009-06-15 07:35:37 51°19.987 2°37.099 15.6199 4.250287 33.91453 10.66549
2009-06-15 07:35:42 51°19.989 2°37.091 15.6223 4.250287 33.913825 10.700314
2009-06-15 07:35:47 51°19.991 2°37.083 15.6203 4.250287 33.913825 10.66549
2009-06-15 07:35:52 51°19.993 2°37.075 15.6196 4.250391 33.915456 10.66549
2009-06-15 07:35:57 51°19.994 2°37.067 15.6184 4.250391 33.916867 10.630666
2009-06-15 07:36:02 51°19.996 2°37.06 15.6154 4.250391 33.916867 10.630666
2009-06-15 07:36:07 51°19.998 2°37.052 15.6147 4.250287 33.916646 10.700314
2009-06-15 07:36:12 51°20 2°37.044 15.6139 4.250391 33.918278 10.630666
2009-06-15 07:36:17 51°20.001 2°37.037 15.6152 4.250391 33.918983 10.66549
2009-06-15 07:36:22 51°20.003 2°37.029 15.6161 4.250391 33.918983 10.595842
2009-06-15 07:36:27 51°20.005 2°37.022 15.6137 4.250391 33.918983 10.595842
2009-06-15 07:36:32 51°20.007 2°37.014 15.6152 4.250495 33.92132 10.561018
2009-06-15 07:36:37 51°20.009 2°37.007 15.6139 4.250495 33.922732 10.526194
2009-06-15 07:36:42 51°20.011 2°36.999 15.6149 4.250495 33.924144 10.526194
2009-06-15 07:36:47 51°20.013 2°36.992 15.6115 4.250495 33.925555 10.49137
2009-06-15 07:36:52 51°20.015 2°36.985 15.6131 4.250391 33.924629 10.526194
2009-06-15 07:36:57 51°20.017 2°36.978 15.6088 4.250391 33.924629 10.526194